<?xml version="1.0" encoding="UTF-8" standalone="no" ?>
<gpx xmlns="http://www.topografix.com/GPX/1/1" xmlns:xsi="http://www.w3.org/2001/XMLSchema-instance" xsi:schemaLocation="http://www.topografix.com/GPX/1/1 http://www.topografix.com/GPX/1/1/gpx.xsd" version="1.1" creator="VisuGPX - https://www.visugpx.com">
  <metadata>
    <name>ENEO MESLIN </name>
    <desc><![CDATA[RANDONNEE ENEO 31 OCTOBRE 2016. 17 degrés ,soleil. 
Guide : Christian 
Belle rando]]></desc>
  </metadata>
  <trk>
    <name><![CDATA[2016-10-31 16:34:58]]></name>
    <trkseg>
      <trkpt lat="50.59588" lon="3.85279">
        <ele>45.32</ele>
        <time>2016-10-31T13:23:24Z</time>
      </trkpt>
      <trkpt lat="50.59588" lon="3.85279">
        <ele>45.32</ele>
        <time>2016-10-31T13:23:25Z</time>
      </trkpt>
      <trkpt lat="50.59586" lon="3.85275">
        <ele>45.8</ele>
        <time>2016-10-31T13:23:49Z</time>
      </trkpt>
      <trkpt lat="50.59583" lon="3.85274">
        <ele>45.8</ele>
        <time>2016-10-31T13:24:08Z</time>
      </trkpt>
      <trkpt lat="50.59583" lon="3.85274">
        <ele>45.8</ele>
        <time>2016-10-31T13:24:26Z</time>
      </trkpt>
      <trkpt lat="50.59583" lon="3.85279">
        <ele>45.8</ele>
        <time>2016-10-31T13:24:50Z</time>
      </trkpt>
      <trkpt lat="50.59585" lon="3.85281">
        <ele>45.8</ele>
        <time>2016-10-31T13:25:15Z</time>
      </trkpt>
      <trkpt lat="50.59585" lon="3.8528">
        <ele>45.32</ele>
        <time>2016-10-31T13:25:39Z</time>
      </trkpt>
      <trkpt lat="50.59585" lon="3.85281">
        <ele>45.32</ele>
        <time>2016-10-31T13:26:05Z</time>
      </trkpt>
      <trkpt lat="50.59584" lon="3.85285">
        <ele>45.32</ele>
        <time>2016-10-31T13:26:27Z</time>
      </trkpt>
      <trkpt lat="50.59582" lon="3.8529">
        <ele>45.32</ele>
        <time>2016-10-31T13:26:47Z</time>
      </trkpt>
      <trkpt lat="50.59582" lon="3.85284">
        <ele>44.84</ele>
        <time>2016-10-31T13:27:15Z</time>
      </trkpt>
      <trkpt lat="50.59585" lon="3.85281">
        <ele>44.84</ele>
        <time>2016-10-31T13:27:38Z</time>
      </trkpt>
      <trkpt lat="50.59584" lon="3.85281">
        <ele>44.84</ele>
        <time>2016-10-31T13:28:01Z</time>
      </trkpt>
      <trkpt lat="50.59585" lon="3.85279">
        <ele>44.84</ele>
        <time>2016-10-31T13:28:25Z</time>
      </trkpt>
      <trkpt lat="50.59585" lon="3.85281">
        <ele>44.84</ele>
        <time>2016-10-31T13:28:55Z</time>
      </trkpt>
      <trkpt lat="50.59583" lon="3.85277">
        <ele>44.84</ele>
        <time>2016-10-31T13:29:15Z</time>
      </trkpt>
      <trkpt lat="50.59582" lon="3.85277">
        <ele>44.36</ele>
        <time>2016-10-31T13:29:28Z</time>
      </trkpt>
      <trkpt lat="50.59584" lon="3.85278">
        <ele>44.36</ele>
        <time>2016-10-31T13:29:39Z</time>
      </trkpt>
      <trkpt lat="50.59584" lon="3.85277">
        <ele>46.28</ele>
        <time>2016-10-31T13:29:44Z</time>
      </trkpt>
      <trkpt lat="50.59583" lon="3.85275">
        <ele>44.84</ele>
        <time>2016-10-31T13:29:47Z</time>
      </trkpt>
      <trkpt lat="50.59582" lon="3.85274">
        <ele>44.84</ele>
        <time>2016-10-31T13:30:11Z</time>
      </trkpt>
      <trkpt lat="50.59579" lon="3.8527">
        <ele>45.32</ele>
        <time>2016-10-31T13:30:37Z</time>
      </trkpt>
      <trkpt lat="50.59582" lon="3.85272">
        <ele>45.32</ele>
        <time>2016-10-31T13:31:03Z</time>
      </trkpt>
      <trkpt lat="50.59581" lon="3.8527">
        <ele>45.32</ele>
        <time>2016-10-31T13:31:31Z</time>
      </trkpt>
      <trkpt lat="50.59583" lon="3.85273">
        <ele>45.8</ele>
        <time>2016-10-31T13:31:59Z</time>
      </trkpt>
      <trkpt lat="50.59579" lon="3.85272">
        <ele>46.28</ele>
        <time>2016-10-31T13:32:28Z</time>
      </trkpt>
      <trkpt lat="50.5958" lon="3.85274">
        <ele>46.28</ele>
        <time>2016-10-31T13:32:56Z</time>
      </trkpt>
      <trkpt lat="50.59583" lon="3.85274">
        <ele>47.72</ele>
        <time>2016-10-31T13:33:26Z</time>
      </trkpt>
      <trkpt lat="50.59584" lon="3.85278">
        <ele>47.24</ele>
        <time>2016-10-31T13:33:35Z</time>
      </trkpt>
      <trkpt lat="50.59584" lon="3.8528">
        <ele>49.16</ele>
        <time>2016-10-31T13:33:52Z</time>
      </trkpt>
      <trkpt lat="50.59586" lon="3.8528">
        <ele>49.16</ele>
        <time>2016-10-31T13:34:20Z</time>
      </trkpt>
      <trkpt lat="50.59585" lon="3.85277">
        <ele>49.16</ele>
        <time>2016-10-31T13:34:44Z</time>
      </trkpt>
      <trkpt lat="50.59584" lon="3.85277">
        <ele>48.68</ele>
        <time>2016-10-31T13:34:55Z</time>
      </trkpt>
      <trkpt lat="50.59586" lon="3.85278">
        <ele>48.68</ele>
        <time>2016-10-31T13:35:19Z</time>
      </trkpt>
      <trkpt lat="50.59585" lon="3.85279">
        <ele>48.68</ele>
        <time>2016-10-31T13:35:44Z</time>
      </trkpt>
      <trkpt lat="50.59577" lon="3.85273">
        <ele>48.68</ele>
        <time>2016-10-31T13:35:59Z</time>
      </trkpt>
      <trkpt lat="50.59572" lon="3.85268">
        <ele>48.68</ele>
        <time>2016-10-31T13:36:12Z</time>
      </trkpt>
      <trkpt lat="50.59562" lon="3.85263">
        <ele>48.68</ele>
        <time>2016-10-31T13:36:28Z</time>
      </trkpt>
      <trkpt lat="50.59557" lon="3.85259">
        <ele>50.13</ele>
        <time>2016-10-31T13:36:34Z</time>
      </trkpt>
      <trkpt lat="50.59544" lon="3.85253">
        <ele>50.13</ele>
        <time>2016-10-31T13:36:52Z</time>
      </trkpt>
      <trkpt lat="50.59536" lon="3.85246">
        <ele>50.13</ele>
        <time>2016-10-31T13:37:08Z</time>
      </trkpt>
      <trkpt lat="50.5952" lon="3.85235">
        <ele>49.16</ele>
        <time>2016-10-31T13:37:28Z</time>
      </trkpt>
      <trkpt lat="50.59517" lon="3.85231">
        <ele>50.61</ele>
        <time>2016-10-31T13:37:30Z</time>
      </trkpt>
      <trkpt lat="50.59504" lon="3.85222">
        <ele>50.61</ele>
        <time>2016-10-31T13:37:44Z</time>
      </trkpt>
      <trkpt lat="50.59497" lon="3.85221">
        <ele>49.16</ele>
        <time>2016-10-31T13:37:51Z</time>
      </trkpt>
      <trkpt lat="50.59485" lon="3.85205">
        <ele>50.61</ele>
        <time>2016-10-31T13:38:04Z</time>
      </trkpt>
      <trkpt lat="50.59479" lon="3.85203">
        <ele>50.61</ele>
        <time>2016-10-31T13:38:09Z</time>
      </trkpt>
      <trkpt lat="50.5947" lon="3.85197">
        <ele>49.16</ele>
        <time>2016-10-31T13:38:14Z</time>
      </trkpt>
      <trkpt lat="50.59451" lon="3.85192">
        <ele>51.57</ele>
        <time>2016-10-31T13:38:25Z</time>
      </trkpt>
      <trkpt lat="50.59446" lon="3.85189">
        <ele>52.05</ele>
        <time>2016-10-31T13:38:29Z</time>
      </trkpt>
      <trkpt lat="50.59443" lon="3.85188">
        <ele>50.13</ele>
        <time>2016-10-31T13:38:31Z</time>
      </trkpt>
      <trkpt lat="50.59438" lon="3.85185">
        <ele>50.13</ele>
        <time>2016-10-31T13:38:35Z</time>
      </trkpt>
      <trkpt lat="50.59423" lon="3.85178">
        <ele>51.57</ele>
        <time>2016-10-31T13:38:48Z</time>
      </trkpt>
      <trkpt lat="50.59413" lon="3.85172">
        <ele>50.61</ele>
        <time>2016-10-31T13:38:59Z</time>
      </trkpt>
      <trkpt lat="50.59411" lon="3.85172">
        <ele>50.61</ele>
        <time>2016-10-31T13:39:01Z</time>
      </trkpt>
      <trkpt lat="50.59392" lon="3.85163">
        <ele>49.65</ele>
        <time>2016-10-31T13:39:16Z</time>
      </trkpt>
      <trkpt lat="50.59375" lon="3.85162">
        <ele>49.65</ele>
        <time>2016-10-31T13:39:31Z</time>
      </trkpt>
      <trkpt lat="50.59372" lon="3.85162">
        <ele>51.09</ele>
        <time>2016-10-31T13:39:33Z</time>
      </trkpt>
      <trkpt lat="50.59369" lon="3.85161">
        <ele>49.65</ele>
        <time>2016-10-31T13:39:36Z</time>
      </trkpt>
      <trkpt lat="50.59359" lon="3.85161">
        <ele>51.09</ele>
        <time>2016-10-31T13:39:44Z</time>
      </trkpt>
      <trkpt lat="50.59345" lon="3.85159">
        <ele>51.09</ele>
        <time>2016-10-31T13:39:55Z</time>
      </trkpt>
      <trkpt lat="50.59336" lon="3.85158">
        <ele>51.57</ele>
        <time>2016-10-31T13:40:02Z</time>
      </trkpt>
      <trkpt lat="50.59333" lon="3.85157">
        <ele>50.13</ele>
        <time>2016-10-31T13:40:05Z</time>
      </trkpt>
      <trkpt lat="50.59331" lon="3.85156">
        <ele>52.05</ele>
        <time>2016-10-31T13:40:07Z</time>
      </trkpt>
      <trkpt lat="50.59325" lon="3.85155">
        <ele>50.13</ele>
        <time>2016-10-31T13:40:10Z</time>
      </trkpt>
      <trkpt lat="50.59317" lon="3.85155">
        <ele>51.57</ele>
        <time>2016-10-31T13:40:15Z</time>
      </trkpt>
      <trkpt lat="50.59316" lon="3.85157">
        <ele>50.13</ele>
        <time>2016-10-31T13:40:17Z</time>
      </trkpt>
      <trkpt lat="50.59316" lon="3.85163">
        <ele>53.01</ele>
        <time>2016-10-31T13:40:21Z</time>
      </trkpt>
      <trkpt lat="50.59315" lon="3.85178">
        <ele>51.09</ele>
        <time>2016-10-31T13:40:30Z</time>
      </trkpt>
      <trkpt lat="50.59315" lon="3.85186">
        <ele>53.01</ele>
        <time>2016-10-31T13:40:34Z</time>
      </trkpt>
      <trkpt lat="50.59315" lon="3.85195">
        <ele>51.09</ele>
        <time>2016-10-31T13:40:39Z</time>
      </trkpt>
      <trkpt lat="50.59315" lon="3.852">
        <ele>52.53</ele>
        <time>2016-10-31T13:40:41Z</time>
      </trkpt>
      <trkpt lat="50.59312" lon="3.85209">
        <ele>51.09</ele>
        <time>2016-10-31T13:40:46Z</time>
      </trkpt>
      <trkpt lat="50.59311" lon="3.85213">
        <ele>53.01</ele>
        <time>2016-10-31T13:40:48Z</time>
      </trkpt>
      <trkpt lat="50.59308" lon="3.85218">
        <ele>51.09</ele>
        <time>2016-10-31T13:40:53Z</time>
      </trkpt>
      <trkpt lat="50.59305" lon="3.85221">
        <ele>53.49</ele>
        <time>2016-10-31T13:40:55Z</time>
      </trkpt>
      <trkpt lat="50.59298" lon="3.85226">
        <ele>52.05</ele>
        <time>2016-10-31T13:40:58Z</time>
      </trkpt>
      <trkpt lat="50.59292" lon="3.85233">
        <ele>53.01</ele>
        <time>2016-10-31T13:41:03Z</time>
      </trkpt>
      <trkpt lat="50.59289" lon="3.85236">
        <ele>51.57</ele>
        <time>2016-10-31T13:41:05Z</time>
      </trkpt>
      <trkpt lat="50.59281" lon="3.85243">
        <ele>53.49</ele>
        <time>2016-10-31T13:41:13Z</time>
      </trkpt>
      <trkpt lat="50.59274" lon="3.85252">
        <ele>52.05</ele>
        <time>2016-10-31T13:41:19Z</time>
      </trkpt>
      <trkpt lat="50.59269" lon="3.85257">
        <ele>51.09</ele>
        <time>2016-10-31T13:41:23Z</time>
      </trkpt>
      <trkpt lat="50.59265" lon="3.85261">
        <ele>53.01</ele>
        <time>2016-10-31T13:41:26Z</time>
      </trkpt>
      <trkpt lat="50.5926" lon="3.85265">
        <ele>51.57</ele>
        <time>2016-10-31T13:41:29Z</time>
      </trkpt>
      <trkpt lat="50.5925" lon="3.85271">
        <ele>53.49</ele>
        <time>2016-10-31T13:41:36Z</time>
      </trkpt>
      <trkpt lat="50.59247" lon="3.85275">
        <ele>51.57</ele>
        <time>2016-10-31T13:41:40Z</time>
      </trkpt>
      <trkpt lat="50.59245" lon="3.85277">
        <ele>53.01</ele>
        <time>2016-10-31T13:41:42Z</time>
      </trkpt>
      <trkpt lat="50.59239" lon="3.85285">
        <ele>53.49</ele>
        <time>2016-10-31T13:41:48Z</time>
      </trkpt>
      <trkpt lat="50.59238" lon="3.85294">
        <ele>52.05</ele>
        <time>2016-10-31T13:41:53Z</time>
      </trkpt>
      <trkpt lat="50.59237" lon="3.85306">
        <ele>53.97</ele>
        <time>2016-10-31T13:41:59Z</time>
      </trkpt>
      <trkpt lat="50.59238" lon="3.85313">
        <ele>52.53</ele>
        <time>2016-10-31T13:42:03Z</time>
      </trkpt>
      <trkpt lat="50.59236" lon="3.85335">
        <ele>52.05</ele>
        <time>2016-10-31T13:42:15Z</time>
      </trkpt>
      <trkpt lat="50.59235" lon="3.85339">
        <ele>53.49</ele>
        <time>2016-10-31T13:42:18Z</time>
      </trkpt>
      <trkpt lat="50.59234" lon="3.85342">
        <ele>53.49</ele>
        <time>2016-10-31T13:42:20Z</time>
      </trkpt>
      <trkpt lat="50.5923" lon="3.85356">
        <ele>52.05</ele>
        <time>2016-10-31T13:42:27Z</time>
      </trkpt>
      <trkpt lat="50.59229" lon="3.85362">
        <ele>53.49</ele>
        <time>2016-10-31T13:42:30Z</time>
      </trkpt>
      <trkpt lat="50.59226" lon="3.85387">
        <ele>51.57</ele>
        <time>2016-10-31T13:42:42Z</time>
      </trkpt>
      <trkpt lat="50.59225" lon="3.85393">
        <ele>53.49</ele>
        <time>2016-10-31T13:42:45Z</time>
      </trkpt>
      <trkpt lat="50.59226" lon="3.85401">
        <ele>52.53</ele>
        <time>2016-10-31T13:42:49Z</time>
      </trkpt>
      <trkpt lat="50.59223" lon="3.85417">
        <ele>53.97</ele>
        <time>2016-10-31T13:42:56Z</time>
      </trkpt>
      <trkpt lat="50.59222" lon="3.85421">
        <ele>52.53</ele>
        <time>2016-10-31T13:42:58Z</time>
      </trkpt>
      <trkpt lat="50.5922" lon="3.85436">
        <ele>53.97</ele>
        <time>2016-10-31T13:43:07Z</time>
      </trkpt>
      <trkpt lat="50.59216" lon="3.85458">
        <ele>53.97</ele>
        <time>2016-10-31T13:43:19Z</time>
      </trkpt>
      <trkpt lat="50.59208" lon="3.85495">
        <ele>53.97</ele>
        <time>2016-10-31T13:43:40Z</time>
      </trkpt>
      <trkpt lat="50.59208" lon="3.85505">
        <ele>53.01</ele>
        <time>2016-10-31T13:43:46Z</time>
      </trkpt>
      <trkpt lat="50.59208" lon="3.85511">
        <ele>53.97</ele>
        <time>2016-10-31T13:43:48Z</time>
      </trkpt>
      <trkpt lat="50.59208" lon="3.85531">
        <ele>54.45</ele>
        <time>2016-10-31T13:43:57Z</time>
      </trkpt>
      <trkpt lat="50.59207" lon="3.85553">
        <ele>53.49</ele>
        <time>2016-10-31T13:44:08Z</time>
      </trkpt>
      <trkpt lat="50.59207" lon="3.85564">
        <ele>54.93</ele>
        <time>2016-10-31T13:44:14Z</time>
      </trkpt>
      <trkpt lat="50.59204" lon="3.85581">
        <ele>53.97</ele>
        <time>2016-10-31T13:44:25Z</time>
      </trkpt>
      <trkpt lat="50.59199" lon="3.85594">
        <ele>53.97</ele>
        <time>2016-10-31T13:44:32Z</time>
      </trkpt>
      <trkpt lat="50.59187" lon="3.85624">
        <ele>55.89</ele>
        <time>2016-10-31T13:44:48Z</time>
      </trkpt>
      <trkpt lat="50.59185" lon="3.85628">
        <ele>54.45</ele>
        <time>2016-10-31T13:44:50Z</time>
      </trkpt>
      <trkpt lat="50.59181" lon="3.85636">
        <ele>55.89</ele>
        <time>2016-10-31T13:44:54Z</time>
      </trkpt>
      <trkpt lat="50.59178" lon="3.85641">
        <ele>54.45</ele>
        <time>2016-10-31T13:44:57Z</time>
      </trkpt>
      <trkpt lat="50.59176" lon="3.85643">
        <ele>56.86</ele>
        <time>2016-10-31T13:44:59Z</time>
      </trkpt>
      <trkpt lat="50.59174" lon="3.85645">
        <ele>54.93</ele>
        <time>2016-10-31T13:45:01Z</time>
      </trkpt>
      <trkpt lat="50.59165" lon="3.85653">
        <ele>56.37</ele>
        <time>2016-10-31T13:45:07Z</time>
      </trkpt>
      <trkpt lat="50.59162" lon="3.85658">
        <ele>54.93</ele>
        <time>2016-10-31T13:45:10Z</time>
      </trkpt>
      <trkpt lat="50.5916" lon="3.85661">
        <ele>56.37</ele>
        <time>2016-10-31T13:45:12Z</time>
      </trkpt>
      <trkpt lat="50.59146" lon="3.85682">
        <ele>56.37</ele>
        <time>2016-10-31T13:45:28Z</time>
      </trkpt>
      <trkpt lat="50.59133" lon="3.85705">
        <ele>57.82</ele>
        <time>2016-10-31T13:45:47Z</time>
      </trkpt>
      <trkpt lat="50.59125" lon="3.85721">
        <ele>57.82</ele>
        <time>2016-10-31T13:45:57Z</time>
      </trkpt>
      <trkpt lat="50.59123" lon="3.85724">
        <ele>56.37</ele>
        <time>2016-10-31T13:45:59Z</time>
      </trkpt>
      <trkpt lat="50.59121" lon="3.85736">
        <ele>57.82</ele>
        <time>2016-10-31T13:46:07Z</time>
      </trkpt>
      <trkpt lat="50.5912" lon="3.85752">
        <ele>55.89</ele>
        <time>2016-10-31T13:46:16Z</time>
      </trkpt>
      <trkpt lat="50.59119" lon="3.85757">
        <ele>57.82</ele>
        <time>2016-10-31T13:46:19Z</time>
      </trkpt>
      <trkpt lat="50.59119" lon="3.8576">
        <ele>57.82</ele>
        <time>2016-10-31T13:46:21Z</time>
      </trkpt>
      <trkpt lat="50.59112" lon="3.85795">
        <ele>56.37</ele>
        <time>2016-10-31T13:46:39Z</time>
      </trkpt>
      <trkpt lat="50.59113" lon="3.85804">
        <ele>56.37</ele>
        <time>2016-10-31T13:46:43Z</time>
      </trkpt>
      <trkpt lat="50.59117" lon="3.85822">
        <ele>57.34</ele>
        <time>2016-10-31T13:46:53Z</time>
      </trkpt>
      <trkpt lat="50.59119" lon="3.85827">
        <ele>55.89</ele>
        <time>2016-10-31T13:46:56Z</time>
      </trkpt>
      <trkpt lat="50.59128" lon="3.85854">
        <ele>55.41</ele>
        <time>2016-10-31T13:47:12Z</time>
      </trkpt>
      <trkpt lat="50.59141" lon="3.85887">
        <ele>54.45</ele>
        <time>2016-10-31T13:47:29Z</time>
      </trkpt>
      <trkpt lat="50.59144" lon="3.85895">
        <ele>54.45</ele>
        <time>2016-10-31T13:47:33Z</time>
      </trkpt>
      <trkpt lat="50.59148" lon="3.85917">
        <ele>55.41</ele>
        <time>2016-10-31T13:47:45Z</time>
      </trkpt>
      <trkpt lat="50.59152" lon="3.8592">
        <ele>55.41</ele>
        <time>2016-10-31T13:47:49Z</time>
      </trkpt>
      <trkpt lat="50.59165" lon="3.85927">
        <ele>55.89</ele>
        <time>2016-10-31T13:47:59Z</time>
      </trkpt>
      <trkpt lat="50.59167" lon="3.85929">
        <ele>54.45</ele>
        <time>2016-10-31T13:48:01Z</time>
      </trkpt>
      <trkpt lat="50.59181" lon="3.85941">
        <ele>54.45</ele>
        <time>2016-10-31T13:48:14Z</time>
      </trkpt>
      <trkpt lat="50.59192" lon="3.85946">
        <ele>55.89</ele>
        <time>2016-10-31T13:48:23Z</time>
      </trkpt>
      <trkpt lat="50.59198" lon="3.85946">
        <ele>53.97</ele>
        <time>2016-10-31T13:48:31Z</time>
      </trkpt>
      <trkpt lat="50.59201" lon="3.85939">
        <ele>55.41</ele>
        <time>2016-10-31T13:48:36Z</time>
      </trkpt>
      <trkpt lat="50.59205" lon="3.85929">
        <ele>53.97</ele>
        <time>2016-10-31T13:48:42Z</time>
      </trkpt>
      <trkpt lat="50.59207" lon="3.85922">
        <ele>54.93</ele>
        <time>2016-10-31T13:48:46Z</time>
      </trkpt>
      <trkpt lat="50.59208" lon="3.85918">
        <ele>53.97</ele>
        <time>2016-10-31T13:48:48Z</time>
      </trkpt>
      <trkpt lat="50.5921" lon="3.85914">
        <ele>55.41</ele>
        <time>2016-10-31T13:48:50Z</time>
      </trkpt>
      <trkpt lat="50.59213" lon="3.85911">
        <ele>53.97</ele>
        <time>2016-10-31T13:48:53Z</time>
      </trkpt>
      <trkpt lat="50.59217" lon="3.85912">
        <ele>54.93</ele>
        <time>2016-10-31T13:48:57Z</time>
      </trkpt>
      <trkpt lat="50.59233" lon="3.85924">
        <ele>53.01</ele>
        <time>2016-10-31T13:49:08Z</time>
      </trkpt>
      <trkpt lat="50.59243" lon="3.85934">
        <ele>53.01</ele>
        <time>2016-10-31T13:49:20Z</time>
      </trkpt>
      <trkpt lat="50.59256" lon="3.85919">
        <ele>53.49</ele>
        <time>2016-10-31T13:49:33Z</time>
      </trkpt>
      <trkpt lat="50.59273" lon="3.85902">
        <ele>51.57</ele>
        <time>2016-10-31T13:49:50Z</time>
      </trkpt>
      <trkpt lat="50.59289" lon="3.85887">
        <ele>51.09</ele>
        <time>2016-10-31T13:50:04Z</time>
      </trkpt>
      <trkpt lat="50.59302" lon="3.85884">
        <ele>49.65</ele>
        <time>2016-10-31T13:50:20Z</time>
      </trkpt>
      <trkpt lat="50.59321" lon="3.85913">
        <ele>49.65</ele>
        <time>2016-10-31T13:50:36Z</time>
      </trkpt>
      <trkpt lat="50.59341" lon="3.85935">
        <ele>48.2</ele>
        <time>2016-10-31T13:50:51Z</time>
      </trkpt>
      <trkpt lat="50.59364" lon="3.85949">
        <ele>45.32</ele>
        <time>2016-10-31T13:51:12Z</time>
      </trkpt>
      <trkpt lat="50.59386" lon="3.85959">
        <ele>43.88</ele>
        <time>2016-10-31T13:51:31Z</time>
      </trkpt>
      <trkpt lat="50.59387" lon="3.85959">
        <ele>45.32</ele>
        <time>2016-10-31T13:51:33Z</time>
      </trkpt>
      <trkpt lat="50.5939" lon="3.85961">
        <ele>43.88</ele>
        <time>2016-10-31T13:51:35Z</time>
      </trkpt>
      <trkpt lat="50.59407" lon="3.85989">
        <ele>43.88</ele>
        <time>2016-10-31T13:51:51Z</time>
      </trkpt>
      <trkpt lat="50.59426" lon="3.86017">
        <ele>42.44</ele>
        <time>2016-10-31T13:52:11Z</time>
      </trkpt>
      <trkpt lat="50.59441" lon="3.86047">
        <ele>41.95</ele>
        <time>2016-10-31T13:52:32Z</time>
      </trkpt>
      <trkpt lat="50.5945" lon="3.86065">
        <ele>41.95</ele>
        <time>2016-10-31T13:52:45Z</time>
      </trkpt>
      <trkpt lat="50.59466" lon="3.86095">
        <ele>42.44</ele>
        <time>2016-10-31T13:53:06Z</time>
      </trkpt>
      <trkpt lat="50.59478" lon="3.86126">
        <ele>41.95</ele>
        <time>2016-10-31T13:53:26Z</time>
      </trkpt>
      <trkpt lat="50.5949" lon="3.86155">
        <ele>43.4</ele>
        <time>2016-10-31T13:53:43Z</time>
      </trkpt>
      <trkpt lat="50.59504" lon="3.86177">
        <ele>43.88</ele>
        <time>2016-10-31T13:53:58Z</time>
      </trkpt>
      <trkpt lat="50.59515" lon="3.86201">
        <ele>44.36</ele>
        <time>2016-10-31T13:54:13Z</time>
      </trkpt>
      <trkpt lat="50.59513" lon="3.86207">
        <ele>44.36</ele>
        <time>2016-10-31T13:54:28Z</time>
      </trkpt>
      <trkpt lat="50.59513" lon="3.86209">
        <ele>44.36</ele>
        <time>2016-10-31T13:54:46Z</time>
      </trkpt>
      <trkpt lat="50.59521" lon="3.86214">
        <ele>44.84</ele>
        <time>2016-10-31T13:55:01Z</time>
      </trkpt>
      <trkpt lat="50.59533" lon="3.8624">
        <ele>46.28</ele>
        <time>2016-10-31T13:55:17Z</time>
      </trkpt>
      <trkpt lat="50.59541" lon="3.86252">
        <ele>46.76</ele>
        <time>2016-10-31T13:55:26Z</time>
      </trkpt>
      <trkpt lat="50.59545" lon="3.8627">
        <ele>47.24</ele>
        <time>2016-10-31T13:55:35Z</time>
      </trkpt>
      <trkpt lat="50.59548" lon="3.86278">
        <ele>47.72</ele>
        <time>2016-10-31T13:55:40Z</time>
      </trkpt>
      <trkpt lat="50.59551" lon="3.86284">
        <ele>47.72</ele>
        <time>2016-10-31T13:55:44Z</time>
      </trkpt>
      <trkpt lat="50.59558" lon="3.86296">
        <ele>48.2</ele>
        <time>2016-10-31T13:55:53Z</time>
      </trkpt>
      <trkpt lat="50.59563" lon="3.8631">
        <ele>48.68</ele>
        <time>2016-10-31T13:56:01Z</time>
      </trkpt>
      <trkpt lat="50.59567" lon="3.86316">
        <ele>48.68</ele>
        <time>2016-10-31T13:56:05Z</time>
      </trkpt>
      <trkpt lat="50.59583" lon="3.86342">
        <ele>49.65</ele>
        <time>2016-10-31T13:56:22Z</time>
      </trkpt>
      <trkpt lat="50.59592" lon="3.86365">
        <ele>49.65</ele>
        <time>2016-10-31T13:56:36Z</time>
      </trkpt>
      <trkpt lat="50.59602" lon="3.86383">
        <ele>50.13</ele>
        <time>2016-10-31T13:56:48Z</time>
      </trkpt>
      <trkpt lat="50.59611" lon="3.86401">
        <ele>50.61</ele>
        <time>2016-10-31T13:56:59Z</time>
      </trkpt>
      <trkpt lat="50.59612" lon="3.86405">
        <ele>50.61</ele>
        <time>2016-10-31T13:57:02Z</time>
      </trkpt>
      <trkpt lat="50.59625" lon="3.86433">
        <ele>51.09</ele>
        <time>2016-10-31T13:57:19Z</time>
      </trkpt>
      <trkpt lat="50.59631" lon="3.86445">
        <ele>51.09</ele>
        <time>2016-10-31T13:57:29Z</time>
      </trkpt>
      <trkpt lat="50.59639" lon="3.8645">
        <ele>51.57</ele>
        <time>2016-10-31T13:57:37Z</time>
      </trkpt>
      <trkpt lat="50.59643" lon="3.86454">
        <ele>51.57</ele>
        <time>2016-10-31T13:57:41Z</time>
      </trkpt>
      <trkpt lat="50.59659" lon="3.86459">
        <ele>52.05</ele>
        <time>2016-10-31T13:57:55Z</time>
      </trkpt>
      <trkpt lat="50.59668" lon="3.86462">
        <ele>52.05</ele>
        <time>2016-10-31T13:58:02Z</time>
      </trkpt>
      <trkpt lat="50.59689" lon="3.86463">
        <ele>52.53</ele>
        <time>2016-10-31T13:58:19Z</time>
      </trkpt>
      <trkpt lat="50.59705" lon="3.8647">
        <ele>53.49</ele>
        <time>2016-10-31T13:58:33Z</time>
      </trkpt>
      <trkpt lat="50.5972" lon="3.86474">
        <ele>54.45</ele>
        <time>2016-10-31T13:58:46Z</time>
      </trkpt>
      <trkpt lat="50.59737" lon="3.86476">
        <ele>54.93</ele>
        <time>2016-10-31T13:59:00Z</time>
      </trkpt>
      <trkpt lat="50.59756" lon="3.86477">
        <ele>55.89</ele>
        <time>2016-10-31T13:59:15Z</time>
      </trkpt>
      <trkpt lat="50.59775" lon="3.86474">
        <ele>56.37</ele>
        <time>2016-10-31T13:59:30Z</time>
      </trkpt>
      <trkpt lat="50.59792" lon="3.86472">
        <ele>57.82</ele>
        <time>2016-10-31T13:59:43Z</time>
      </trkpt>
      <trkpt lat="50.5981" lon="3.86467">
        <ele>58.3</ele>
        <time>2016-10-31T13:59:58Z</time>
      </trkpt>
      <trkpt lat="50.5983" lon="3.86461">
        <ele>58.78</ele>
        <time>2016-10-31T14:00:14Z</time>
      </trkpt>
      <trkpt lat="50.59849" lon="3.86454">
        <ele>59.74</ele>
        <time>2016-10-31T14:00:29Z</time>
      </trkpt>
      <trkpt lat="50.59871" lon="3.86454">
        <ele>59.74</ele>
        <time>2016-10-31T14:00:46Z</time>
      </trkpt>
      <trkpt lat="50.59892" lon="3.86468">
        <ele>59.74</ele>
        <time>2016-10-31T14:01:04Z</time>
      </trkpt>
      <trkpt lat="50.59911" lon="3.86482">
        <ele>60.22</ele>
        <time>2016-10-31T14:01:20Z</time>
      </trkpt>
      <trkpt lat="50.5993" lon="3.86496">
        <ele>60.22</ele>
        <time>2016-10-31T14:01:37Z</time>
      </trkpt>
      <trkpt lat="50.59954" lon="3.86513">
        <ele>60.22</ele>
        <time>2016-10-31T14:01:57Z</time>
      </trkpt>
      <trkpt lat="50.59973" lon="3.86531">
        <ele>60.7</ele>
        <time>2016-10-31T14:02:14Z</time>
      </trkpt>
      <trkpt lat="50.5999" lon="3.86552">
        <ele>60.7</ele>
        <time>2016-10-31T14:02:31Z</time>
      </trkpt>
      <trkpt lat="50.60006" lon="3.86574">
        <ele>61.18</ele>
        <time>2016-10-31T14:02:48Z</time>
      </trkpt>
      <trkpt lat="50.60022" lon="3.86602">
        <ele>61.18</ele>
        <time>2016-10-31T14:03:06Z</time>
      </trkpt>
      <trkpt lat="50.60039" lon="3.86634">
        <ele>61.18</ele>
        <time>2016-10-31T14:03:25Z</time>
      </trkpt>
      <trkpt lat="50.60056" lon="3.86663">
        <ele>61.66</ele>
        <time>2016-10-31T14:03:45Z</time>
      </trkpt>
      <trkpt lat="50.60068" lon="3.86686">
        <ele>61.66</ele>
        <time>2016-10-31T14:04:01Z</time>
      </trkpt>
      <trkpt lat="50.6008" lon="3.86708">
        <ele>62.14</ele>
        <time>2016-10-31T14:04:16Z</time>
      </trkpt>
      <trkpt lat="50.60095" lon="3.86733">
        <ele>62.14</ele>
        <time>2016-10-31T14:04:33Z</time>
      </trkpt>
      <trkpt lat="50.6011" lon="3.8676">
        <ele>62.62</ele>
        <time>2016-10-31T14:04:51Z</time>
      </trkpt>
      <trkpt lat="50.60125" lon="3.86791">
        <ele>62.62</ele>
        <time>2016-10-31T14:05:09Z</time>
      </trkpt>
      <trkpt lat="50.60139" lon="3.86814">
        <ele>63.1</ele>
        <time>2016-10-31T14:05:25Z</time>
      </trkpt>
      <trkpt lat="50.60156" lon="3.86831">
        <ele>63.58</ele>
        <time>2016-10-31T14:05:41Z</time>
      </trkpt>
      <trkpt lat="50.60165" lon="3.86835">
        <ele>63.58</ele>
        <time>2016-10-31T14:05:50Z</time>
      </trkpt>
      <trkpt lat="50.60188" lon="3.86843">
        <ele>63.58</ele>
        <time>2016-10-31T14:06:09Z</time>
      </trkpt>
      <trkpt lat="50.60207" lon="3.86851">
        <ele>63.58</ele>
        <time>2016-10-31T14:06:26Z</time>
      </trkpt>
      <trkpt lat="50.60226" lon="3.86859">
        <ele>63.58</ele>
        <time>2016-10-31T14:06:42Z</time>
      </trkpt>
      <trkpt lat="50.6025" lon="3.86868">
        <ele>63.58</ele>
        <time>2016-10-31T14:07:01Z</time>
      </trkpt>
      <trkpt lat="50.60269" lon="3.86877">
        <ele>63.58</ele>
        <time>2016-10-31T14:07:16Z</time>
      </trkpt>
      <trkpt lat="50.60286" lon="3.86886">
        <ele>63.1</ele>
        <time>2016-10-31T14:07:33Z</time>
      </trkpt>
      <trkpt lat="50.60295" lon="3.86891">
        <ele>62.14</ele>
        <time>2016-10-31T14:07:44Z</time>
      </trkpt>
      <trkpt lat="50.60297" lon="3.86893">
        <ele>62.14</ele>
        <time>2016-10-31T14:07:59Z</time>
      </trkpt>
      <trkpt lat="50.60302" lon="3.86893">
        <ele>62.14</ele>
        <time>2016-10-31T14:08:18Z</time>
      </trkpt>
      <trkpt lat="50.60323" lon="3.86907">
        <ele>61.66</ele>
        <time>2016-10-31T14:08:36Z</time>
      </trkpt>
      <trkpt lat="50.60345" lon="3.86921">
        <ele>61.66</ele>
        <time>2016-10-31T14:08:54Z</time>
      </trkpt>
      <trkpt lat="50.60369" lon="3.86935">
        <ele>61.66</ele>
        <time>2016-10-31T14:09:14Z</time>
      </trkpt>
      <trkpt lat="50.60389" lon="3.86946">
        <ele>61.66</ele>
        <time>2016-10-31T14:09:31Z</time>
      </trkpt>
      <trkpt lat="50.60409" lon="3.86958">
        <ele>62.62</ele>
        <time>2016-10-31T14:09:49Z</time>
      </trkpt>
      <trkpt lat="50.60432" lon="3.86976">
        <ele>62.62</ele>
        <time>2016-10-31T14:10:08Z</time>
      </trkpt>
      <trkpt lat="50.60453" lon="3.86991">
        <ele>63.1</ele>
        <time>2016-10-31T14:10:25Z</time>
      </trkpt>
      <trkpt lat="50.60475" lon="3.87005">
        <ele>63.1</ele>
        <time>2016-10-31T14:10:43Z</time>
      </trkpt>
      <trkpt lat="50.60495" lon="3.87018">
        <ele>63.58</ele>
        <time>2016-10-31T14:11:01Z</time>
      </trkpt>
      <trkpt lat="50.60517" lon="3.87032">
        <ele>63.58</ele>
        <time>2016-10-31T14:11:19Z</time>
      </trkpt>
      <trkpt lat="50.60542" lon="3.87047">
        <ele>64.07</ele>
        <time>2016-10-31T14:11:38Z</time>
      </trkpt>
      <trkpt lat="50.60563" lon="3.87063">
        <ele>64.55</ele>
        <time>2016-10-31T14:11:55Z</time>
      </trkpt>
      <trkpt lat="50.60584" lon="3.87075">
        <ele>64.55</ele>
        <time>2016-10-31T14:12:13Z</time>
      </trkpt>
      <trkpt lat="50.60595" lon="3.87082">
        <ele>65.03</ele>
        <time>2016-10-31T14:12:24Z</time>
      </trkpt>
      <trkpt lat="50.60602" lon="3.87086">
        <ele>65.03</ele>
        <time>2016-10-31T14:12:30Z</time>
      </trkpt>
      <trkpt lat="50.60616" lon="3.87094">
        <ele>65.03</ele>
        <time>2016-10-31T14:12:43Z</time>
      </trkpt>
      <trkpt lat="50.60621" lon="3.87096">
        <ele>65.03</ele>
        <time>2016-10-31T14:12:47Z</time>
      </trkpt>
      <trkpt lat="50.6064" lon="3.87107">
        <ele>65.51</ele>
        <time>2016-10-31T14:13:03Z</time>
      </trkpt>
      <trkpt lat="50.60657" lon="3.87112">
        <ele>65.99</ele>
        <time>2016-10-31T14:13:17Z</time>
      </trkpt>
      <trkpt lat="50.60679" lon="3.87116">
        <ele>66.47</ele>
        <time>2016-10-31T14:13:33Z</time>
      </trkpt>
      <trkpt lat="50.60703" lon="3.87116">
        <ele>66.95</ele>
        <time>2016-10-31T14:13:52Z</time>
      </trkpt>
      <trkpt lat="50.60724" lon="3.87119">
        <ele>66.95</ele>
        <time>2016-10-31T14:14:08Z</time>
      </trkpt>
      <trkpt lat="50.60743" lon="3.87123">
        <ele>66.95</ele>
        <time>2016-10-31T14:14:23Z</time>
      </trkpt>
      <trkpt lat="50.6076" lon="3.87127">
        <ele>66.95</ele>
        <time>2016-10-31T14:14:37Z</time>
      </trkpt>
      <trkpt lat="50.60783" lon="3.87133">
        <ele>66.95</ele>
        <time>2016-10-31T14:14:53Z</time>
      </trkpt>
      <trkpt lat="50.60805" lon="3.87138">
        <ele>66.95</ele>
        <time>2016-10-31T14:15:11Z</time>
      </trkpt>
      <trkpt lat="50.60825" lon="3.87142">
        <ele>66.95</ele>
        <time>2016-10-31T14:15:27Z</time>
      </trkpt>
      <trkpt lat="50.60845" lon="3.87147">
        <ele>66.95</ele>
        <time>2016-10-31T14:15:43Z</time>
      </trkpt>
      <trkpt lat="50.6087" lon="3.87154">
        <ele>67.43</ele>
        <time>2016-10-31T14:16:02Z</time>
      </trkpt>
      <trkpt lat="50.60889" lon="3.8716">
        <ele>67.43</ele>
        <time>2016-10-31T14:16:18Z</time>
      </trkpt>
      <trkpt lat="50.60908" lon="3.87166">
        <ele>67.43</ele>
        <time>2016-10-31T14:16:33Z</time>
      </trkpt>
      <trkpt lat="50.60927" lon="3.87174">
        <ele>67.91</ele>
        <time>2016-10-31T14:16:48Z</time>
      </trkpt>
      <trkpt lat="50.60946" lon="3.87182">
        <ele>67.91</ele>
        <time>2016-10-31T14:17:04Z</time>
      </trkpt>
      <trkpt lat="50.60964" lon="3.8719">
        <ele>67.91</ele>
        <time>2016-10-31T14:17:20Z</time>
      </trkpt>
      <trkpt lat="50.60985" lon="3.87201">
        <ele>67.91</ele>
        <time>2016-10-31T14:17:38Z</time>
      </trkpt>
      <trkpt lat="50.61006" lon="3.8721">
        <ele>68.39</ele>
        <time>2016-10-31T14:17:55Z</time>
      </trkpt>
      <trkpt lat="50.61027" lon="3.87225">
        <ele>68.87</ele>
        <time>2016-10-31T14:18:13Z</time>
      </trkpt>
      <trkpt lat="50.61046" lon="3.87244">
        <ele>68.87</ele>
        <time>2016-10-31T14:18:31Z</time>
      </trkpt>
      <trkpt lat="50.61061" lon="3.87261">
        <ele>68.39</ele>
        <time>2016-10-31T14:18:46Z</time>
      </trkpt>
      <trkpt lat="50.61077" lon="3.87282">
        <ele>68.87</ele>
        <time>2016-10-31T14:19:04Z</time>
      </trkpt>
      <trkpt lat="50.61094" lon="3.873">
        <ele>68.87</ele>
        <time>2016-10-31T14:19:20Z</time>
      </trkpt>
      <trkpt lat="50.61109" lon="3.8732">
        <ele>69.35</ele>
        <time>2016-10-31T14:19:37Z</time>
      </trkpt>
      <trkpt lat="50.61115" lon="3.87326">
        <ele>69.35</ele>
        <time>2016-10-31T14:19:50Z</time>
      </trkpt>
      <trkpt lat="50.61118" lon="3.87329">
        <ele>69.35</ele>
        <time>2016-10-31T14:20:04Z</time>
      </trkpt>
      <trkpt lat="50.61122" lon="3.87333">
        <ele>69.35</ele>
        <time>2016-10-31T14:20:29Z</time>
      </trkpt>
      <trkpt lat="50.61135" lon="3.87352">
        <ele>69.35</ele>
        <time>2016-10-31T14:20:44Z</time>
      </trkpt>
      <trkpt lat="50.6114" lon="3.87359">
        <ele>69.35</ele>
        <time>2016-10-31T14:20:51Z</time>
      </trkpt>
      <trkpt lat="50.61158" lon="3.87387">
        <ele>69.83</ele>
        <time>2016-10-31T14:21:10Z</time>
      </trkpt>
      <trkpt lat="50.61173" lon="3.87409">
        <ele>70.79</ele>
        <time>2016-10-31T14:21:26Z</time>
      </trkpt>
      <trkpt lat="50.61187" lon="3.87431">
        <ele>70.79</ele>
        <time>2016-10-31T14:21:42Z</time>
      </trkpt>
      <trkpt lat="50.61204" lon="3.8746">
        <ele>71.27</ele>
        <time>2016-10-31T14:22:01Z</time>
      </trkpt>
      <trkpt lat="50.61223" lon="3.87482">
        <ele>72.72</ele>
        <time>2016-10-31T14:22:19Z</time>
      </trkpt>
      <trkpt lat="50.61244" lon="3.87495">
        <ele>73.2</ele>
        <time>2016-10-31T14:22:37Z</time>
      </trkpt>
      <trkpt lat="50.61265" lon="3.87506">
        <ele>73.68</ele>
        <time>2016-10-31T14:22:54Z</time>
      </trkpt>
      <trkpt lat="50.61288" lon="3.8752">
        <ele>74.16</ele>
        <time>2016-10-31T14:23:12Z</time>
      </trkpt>
      <trkpt lat="50.61307" lon="3.87532">
        <ele>76.08</ele>
        <time>2016-10-31T14:23:28Z</time>
      </trkpt>
      <trkpt lat="50.61327" lon="3.87544">
        <ele>76.56</ele>
        <time>2016-10-31T14:23:45Z</time>
      </trkpt>
      <trkpt lat="50.61345" lon="3.87553">
        <ele>77.52</ele>
        <time>2016-10-31T14:24:00Z</time>
      </trkpt>
      <trkpt lat="50.61362" lon="3.87565">
        <ele>78</ele>
        <time>2016-10-31T14:24:16Z</time>
      </trkpt>
      <trkpt lat="50.61382" lon="3.87578">
        <ele>76.56</ele>
        <time>2016-10-31T14:24:34Z</time>
      </trkpt>
      <trkpt lat="50.61401" lon="3.8759">
        <ele>75.6</ele>
        <time>2016-10-31T14:24:51Z</time>
      </trkpt>
      <trkpt lat="50.61414" lon="3.87604">
        <ele>75.12</ele>
        <time>2016-10-31T14:25:05Z</time>
      </trkpt>
      <trkpt lat="50.61434" lon="3.87627">
        <ele>74.16</ele>
        <time>2016-10-31T14:25:25Z</time>
      </trkpt>
      <trkpt lat="50.6145" lon="3.87647">
        <ele>73.2</ele>
        <time>2016-10-31T14:25:42Z</time>
      </trkpt>
      <trkpt lat="50.61472" lon="3.87673">
        <ele>73.2</ele>
        <time>2016-10-31T14:26:02Z</time>
      </trkpt>
      <trkpt lat="50.61487" lon="3.87692">
        <ele>72.72</ele>
        <time>2016-10-31T14:26:18Z</time>
      </trkpt>
      <trkpt lat="50.61492" lon="3.87699">
        <ele>72.72</ele>
        <time>2016-10-31T14:26:33Z</time>
      </trkpt>
      <trkpt lat="50.61493" lon="3.87696">
        <ele>72.72</ele>
        <time>2016-10-31T14:26:44Z</time>
      </trkpt>
      <trkpt lat="50.61493" lon="3.87697">
        <ele>72.72</ele>
        <time>2016-10-31T14:27:00Z</time>
      </trkpt>
      <trkpt lat="50.61492" lon="3.87698">
        <ele>72.72</ele>
        <time>2016-10-31T14:27:36Z</time>
      </trkpt>
      <trkpt lat="50.61496" lon="3.87701">
        <ele>72.24</ele>
        <time>2016-10-31T14:27:54Z</time>
      </trkpt>
      <trkpt lat="50.61498" lon="3.87698">
        <ele>72.24</ele>
        <time>2016-10-31T14:27:57Z</time>
      </trkpt>
      <trkpt lat="50.61499" lon="3.87695">
        <ele>72.24</ele>
        <time>2016-10-31T14:27:59Z</time>
      </trkpt>
      <trkpt lat="50.615" lon="3.87689">
        <ele>73.68</ele>
        <time>2016-10-31T14:28:02Z</time>
      </trkpt>
      <trkpt lat="50.61502" lon="3.87683">
        <ele>72.24</ele>
        <time>2016-10-31T14:28:05Z</time>
      </trkpt>
      <trkpt lat="50.61504" lon="3.8765">
        <ele>71.76</ele>
        <time>2016-10-31T14:28:21Z</time>
      </trkpt>
      <trkpt lat="50.61505" lon="3.87643">
        <ele>73.68</ele>
        <time>2016-10-31T14:28:24Z</time>
      </trkpt>
      <trkpt lat="50.61506" lon="3.87633">
        <ele>72.24</ele>
        <time>2016-10-31T14:28:29Z</time>
      </trkpt>
      <trkpt lat="50.61506" lon="3.87614">
        <ele>73.68</ele>
        <time>2016-10-31T14:28:39Z</time>
      </trkpt>
      <trkpt lat="50.61506" lon="3.8761">
        <ele>72.24</ele>
        <time>2016-10-31T14:28:41Z</time>
      </trkpt>
      <trkpt lat="50.61503" lon="3.87579">
        <ele>73.68</ele>
        <time>2016-10-31T14:28:56Z</time>
      </trkpt>
      <trkpt lat="50.61502" lon="3.87575">
        <ele>72.24</ele>
        <time>2016-10-31T14:28:58Z</time>
      </trkpt>
      <trkpt lat="50.61502" lon="3.8757">
        <ele>73.68</ele>
        <time>2016-10-31T14:29:01Z</time>
      </trkpt>
      <trkpt lat="50.61501" lon="3.87565">
        <ele>72.24</ele>
        <time>2016-10-31T14:29:03Z</time>
      </trkpt>
      <trkpt lat="50.61499" lon="3.87542">
        <ele>73.2</ele>
        <time>2016-10-31T14:29:13Z</time>
      </trkpt>
      <trkpt lat="50.61498" lon="3.87532">
        <ele>71.76</ele>
        <time>2016-10-31T14:29:17Z</time>
      </trkpt>
      <trkpt lat="50.61494" lon="3.87494">
        <ele>71.27</ele>
        <time>2016-10-31T14:29:36Z</time>
      </trkpt>
      <trkpt lat="50.61493" lon="3.87482">
        <ele>70.79</ele>
        <time>2016-10-31T14:29:42Z</time>
      </trkpt>
      <trkpt lat="50.61492" lon="3.87477">
        <ele>69.35</ele>
        <time>2016-10-31T14:29:45Z</time>
      </trkpt>
      <trkpt lat="50.6149" lon="3.87462">
        <ele>70.31</ele>
        <time>2016-10-31T14:29:52Z</time>
      </trkpt>
      <trkpt lat="50.61488" lon="3.87448">
        <ele>71.27</ele>
        <time>2016-10-31T14:29:59Z</time>
      </trkpt>
      <trkpt lat="50.61488" lon="3.87445">
        <ele>69.83</ele>
        <time>2016-10-31T14:30:01Z</time>
      </trkpt>
      <trkpt lat="50.61484" lon="3.87413">
        <ele>67.91</ele>
        <time>2016-10-31T14:30:17Z</time>
      </trkpt>
      <trkpt lat="50.61484" lon="3.8741">
        <ele>70.31</ele>
        <time>2016-10-31T14:30:19Z</time>
      </trkpt>
      <trkpt lat="50.61483" lon="3.87405">
        <ele>68.87</ele>
        <time>2016-10-31T14:30:22Z</time>
      </trkpt>
      <trkpt lat="50.61473" lon="3.87373">
        <ele>68.87</ele>
        <time>2016-10-31T14:30:40Z</time>
      </trkpt>
      <trkpt lat="50.61467" lon="3.87361">
        <ele>67.43</ele>
        <time>2016-10-31T14:30:47Z</time>
      </trkpt>
      <trkpt lat="50.61452" lon="3.87337">
        <ele>66.47</ele>
        <time>2016-10-31T14:31:05Z</time>
      </trkpt>
      <trkpt lat="50.61438" lon="3.87318">
        <ele>65.03</ele>
        <time>2016-10-31T14:31:19Z</time>
      </trkpt>
      <trkpt lat="50.61433" lon="3.87312">
        <ele>65.51</ele>
        <time>2016-10-31T14:31:25Z</time>
      </trkpt>
      <trkpt lat="50.61415" lon="3.87298">
        <ele>64.07</ele>
        <time>2016-10-31T14:31:40Z</time>
      </trkpt>
      <trkpt lat="50.61394" lon="3.87284">
        <ele>64.55</ele>
        <time>2016-10-31T14:32:01Z</time>
      </trkpt>
      <trkpt lat="50.61391" lon="3.87282">
        <ele>63.1</ele>
        <time>2016-10-31T14:32:03Z</time>
      </trkpt>
      <trkpt lat="50.61376" lon="3.87251">
        <ele>61.66</ele>
        <time>2016-10-31T14:32:21Z</time>
      </trkpt>
      <trkpt lat="50.61374" lon="3.87246">
        <ele>63.1</ele>
        <time>2016-10-31T14:32:24Z</time>
      </trkpt>
      <trkpt lat="50.61365" lon="3.87211">
        <ele>60.7</ele>
        <time>2016-10-31T14:32:41Z</time>
      </trkpt>
      <trkpt lat="50.61361" lon="3.87194">
        <ele>61.18</ele>
        <time>2016-10-31T14:32:50Z</time>
      </trkpt>
      <trkpt lat="50.61359" lon="3.8718">
        <ele>62.62</ele>
        <time>2016-10-31T14:32:56Z</time>
      </trkpt>
      <trkpt lat="50.61358" lon="3.87176">
        <ele>61.18</ele>
        <time>2016-10-31T14:32:58Z</time>
      </trkpt>
      <trkpt lat="50.61351" lon="3.87146">
        <ele>60.22</ele>
        <time>2016-10-31T14:33:13Z</time>
      </trkpt>
      <trkpt lat="50.6135" lon="3.87141">
        <ele>61.66</ele>
        <time>2016-10-31T14:33:16Z</time>
      </trkpt>
      <trkpt lat="50.61349" lon="3.87136">
        <ele>60.22</ele>
        <time>2016-10-31T14:33:19Z</time>
      </trkpt>
      <trkpt lat="50.61336" lon="3.87101">
        <ele>59.74</ele>
        <time>2016-10-31T14:33:36Z</time>
      </trkpt>
      <trkpt lat="50.61319" lon="3.87073">
        <ele>60.7</ele>
        <time>2016-10-31T14:33:57Z</time>
      </trkpt>
      <trkpt lat="50.61314" lon="3.87065">
        <ele>58.78</ele>
        <time>2016-10-31T14:34:02Z</time>
      </trkpt>
      <trkpt lat="50.61312" lon="3.87061">
        <ele>60.22</ele>
        <time>2016-10-31T14:34:04Z</time>
      </trkpt>
      <trkpt lat="50.61305" lon="3.87048">
        <ele>59.74</ele>
        <time>2016-10-31T14:34:12Z</time>
      </trkpt>
      <trkpt lat="50.61298" lon="3.87038">
        <ele>59.26</ele>
        <time>2016-10-31T14:34:20Z</time>
      </trkpt>
      <trkpt lat="50.61296" lon="3.87034">
        <ele>58.78</ele>
        <time>2016-10-31T14:34:36Z</time>
      </trkpt>
      <trkpt lat="50.61297" lon="3.87034">
        <ele>58.78</ele>
        <time>2016-10-31T14:35:01Z</time>
      </trkpt>
      <trkpt lat="50.61297" lon="3.87035">
        <ele>58.78</ele>
        <time>2016-10-31T14:35:24Z</time>
      </trkpt>
      <trkpt lat="50.61294" lon="3.8703">
        <ele>58.78</ele>
        <time>2016-10-31T14:35:49Z</time>
      </trkpt>
      <trkpt lat="50.61294" lon="3.8703">
        <ele>60.22</ele>
        <time>2016-10-31T14:36:09Z</time>
      </trkpt>
      <trkpt lat="50.61293" lon="3.8703">
        <ele>60.22</ele>
        <time>2016-10-31T14:36:35Z</time>
      </trkpt>
      <trkpt lat="50.6128" lon="3.87009">
        <ele>58.78</ele>
        <time>2016-10-31T14:36:52Z</time>
      </trkpt>
      <trkpt lat="50.61279" lon="3.87006">
        <ele>60.22</ele>
        <time>2016-10-31T14:36:54Z</time>
      </trkpt>
      <trkpt lat="50.61278" lon="3.87002">
        <ele>59.26</ele>
        <time>2016-10-31T14:36:56Z</time>
      </trkpt>
      <trkpt lat="50.61273" lon="3.86997">
        <ele>58.78</ele>
        <time>2016-10-31T14:37:11Z</time>
      </trkpt>
      <trkpt lat="50.61272" lon="3.86997">
        <ele>58.78</ele>
        <time>2016-10-31T14:37:17Z</time>
      </trkpt>
      <trkpt lat="50.61263" lon="3.8698">
        <ele>60.22</ele>
        <time>2016-10-31T14:37:28Z</time>
      </trkpt>
      <trkpt lat="50.61254" lon="3.86965">
        <ele>60.22</ele>
        <time>2016-10-31T14:37:40Z</time>
      </trkpt>
      <trkpt lat="50.61252" lon="3.86959">
        <ele>58.3</ele>
        <time>2016-10-31T14:37:43Z</time>
      </trkpt>
      <trkpt lat="50.61244" lon="3.86943">
        <ele>59.74</ele>
        <time>2016-10-31T14:37:53Z</time>
      </trkpt>
      <trkpt lat="50.61238" lon="3.86936">
        <ele>58.3</ele>
        <time>2016-10-31T14:37:59Z</time>
      </trkpt>
      <trkpt lat="50.61228" lon="3.86919">
        <ele>59.74</ele>
        <time>2016-10-31T14:38:11Z</time>
      </trkpt>
      <trkpt lat="50.61226" lon="3.86915">
        <ele>58.3</ele>
        <time>2016-10-31T14:38:14Z</time>
      </trkpt>
      <trkpt lat="50.61215" lon="3.86892">
        <ele>59.26</ele>
        <time>2016-10-31T14:38:27Z</time>
      </trkpt>
      <trkpt lat="50.61213" lon="3.86888">
        <ele>58.3</ele>
        <time>2016-10-31T14:38:29Z</time>
      </trkpt>
      <trkpt lat="50.61201" lon="3.86866">
        <ele>59.26</ele>
        <time>2016-10-31T14:38:43Z</time>
      </trkpt>
      <trkpt lat="50.61194" lon="3.86858">
        <ele>57.34</ele>
        <time>2016-10-31T14:38:49Z</time>
      </trkpt>
      <trkpt lat="50.61185" lon="3.86846">
        <ele>58.78</ele>
        <time>2016-10-31T14:38:59Z</time>
      </trkpt>
      <trkpt lat="50.61168" lon="3.8682">
        <ele>58.78</ele>
        <time>2016-10-31T14:39:17Z</time>
      </trkpt>
      <trkpt lat="50.61164" lon="3.86813">
        <ele>57.34</ele>
        <time>2016-10-31T14:39:21Z</time>
      </trkpt>
      <trkpt lat="50.61145" lon="3.86786">
        <ele>56.86</ele>
        <time>2016-10-31T14:39:39Z</time>
      </trkpt>
      <trkpt lat="50.61132" lon="3.86771">
        <ele>58.3</ele>
        <time>2016-10-31T14:39:52Z</time>
      </trkpt>
      <trkpt lat="50.61128" lon="3.86765">
        <ele>56.86</ele>
        <time>2016-10-31T14:39:57Z</time>
      </trkpt>
      <trkpt lat="50.61108" lon="3.86736">
        <ele>56.86</ele>
        <time>2016-10-31T14:40:17Z</time>
      </trkpt>
      <trkpt lat="50.61101" lon="3.86726">
        <ele>58.3</ele>
        <time>2016-10-31T14:40:23Z</time>
      </trkpt>
      <trkpt lat="50.61098" lon="3.86722">
        <ele>56.86</ele>
        <time>2016-10-31T14:40:26Z</time>
      </trkpt>
      <trkpt lat="50.61086" lon="3.86702">
        <ele>57.82</ele>
        <time>2016-10-31T14:40:40Z</time>
      </trkpt>
      <trkpt lat="50.61085" lon="3.867">
        <ele>57.82</ele>
        <time>2016-10-31T14:40:42Z</time>
      </trkpt>
      <trkpt lat="50.61083" lon="3.86694">
        <ele>57.82</ele>
        <time>2016-10-31T14:40:46Z</time>
      </trkpt>
      <trkpt lat="50.6107" lon="3.86671">
        <ele>57.34</ele>
        <time>2016-10-31T14:41:02Z</time>
      </trkpt>
      <trkpt lat="50.61062" lon="3.86655">
        <ele>55.89</ele>
        <time>2016-10-31T14:41:11Z</time>
      </trkpt>
      <trkpt lat="50.61059" lon="3.8665">
        <ele>57.82</ele>
        <time>2016-10-31T14:41:14Z</time>
      </trkpt>
      <trkpt lat="50.61052" lon="3.86638">
        <ele>56.86</ele>
        <time>2016-10-31T14:41:21Z</time>
      </trkpt>
      <trkpt lat="50.61038" lon="3.86617">
        <ele>57.82</ele>
        <time>2016-10-31T14:41:36Z</time>
      </trkpt>
      <trkpt lat="50.61018" lon="3.86585">
        <ele>57.34</ele>
        <time>2016-10-31T14:41:57Z</time>
      </trkpt>
      <trkpt lat="50.61014" lon="3.86578">
        <ele>55.89</ele>
        <time>2016-10-31T14:42:01Z</time>
      </trkpt>
      <trkpt lat="50.61006" lon="3.86563">
        <ele>56.86</ele>
        <time>2016-10-31T14:42:10Z</time>
      </trkpt>
      <trkpt lat="50.61003" lon="3.86555">
        <ele>55.41</ele>
        <time>2016-10-31T14:42:14Z</time>
      </trkpt>
      <trkpt lat="50.60995" lon="3.86538">
        <ele>56.86</ele>
        <time>2016-10-31T14:42:23Z</time>
      </trkpt>
      <trkpt lat="50.60987" lon="3.86519">
        <ele>57.34</ele>
        <time>2016-10-31T14:42:34Z</time>
      </trkpt>
      <trkpt lat="50.60981" lon="3.86507">
        <ele>55.41</ele>
        <time>2016-10-31T14:42:41Z</time>
      </trkpt>
      <trkpt lat="50.60968" lon="3.86478">
        <ele>55.41</ele>
        <time>2016-10-31T14:42:58Z</time>
      </trkpt>
      <trkpt lat="50.60955" lon="3.86447">
        <ele>54.93</ele>
        <time>2016-10-31T14:43:17Z</time>
      </trkpt>
      <trkpt lat="50.6094" lon="3.86405">
        <ele>55.89</ele>
        <time>2016-10-31T14:43:39Z</time>
      </trkpt>
      <trkpt lat="50.60933" lon="3.86385">
        <ele>54.45</ele>
        <time>2016-10-31T14:43:50Z</time>
      </trkpt>
      <trkpt lat="50.6092" lon="3.86344">
        <ele>54.93</ele>
        <time>2016-10-31T14:44:09Z</time>
      </trkpt>
      <trkpt lat="50.60912" lon="3.8632">
        <ele>56.37</ele>
        <time>2016-10-31T14:44:20Z</time>
      </trkpt>
      <trkpt lat="50.60908" lon="3.86309">
        <ele>54.93</ele>
        <time>2016-10-31T14:44:26Z</time>
      </trkpt>
      <trkpt lat="50.60904" lon="3.863">
        <ele>56.37</ele>
        <time>2016-10-31T14:44:31Z</time>
      </trkpt>
      <trkpt lat="50.60899" lon="3.86289">
        <ele>54.93</ele>
        <time>2016-10-31T14:44:37Z</time>
      </trkpt>
      <trkpt lat="50.60888" lon="3.86268">
        <ele>56.37</ele>
        <time>2016-10-31T14:44:50Z</time>
      </trkpt>
      <trkpt lat="50.60881" lon="3.86257">
        <ele>54.93</ele>
        <time>2016-10-31T14:44:57Z</time>
      </trkpt>
      <trkpt lat="50.60865" lon="3.86231">
        <ele>54.93</ele>
        <time>2016-10-31T14:45:16Z</time>
      </trkpt>
      <trkpt lat="50.60849" lon="3.86193">
        <ele>55.89</ele>
        <time>2016-10-31T14:45:37Z</time>
      </trkpt>
      <trkpt lat="50.60846" lon="3.86187">
        <ele>54.45</ele>
        <time>2016-10-31T14:45:40Z</time>
      </trkpt>
      <trkpt lat="50.60838" lon="3.8616">
        <ele>53.97</ele>
        <time>2016-10-31T14:45:58Z</time>
      </trkpt>
      <trkpt lat="50.60837" lon="3.8616">
        <ele>53.97</ele>
        <time>2016-10-31T14:46:27Z</time>
      </trkpt>
      <trkpt lat="50.60837" lon="3.8616">
        <ele>53.97</ele>
        <time>2016-10-31T14:46:53Z</time>
      </trkpt>
      <trkpt lat="50.60837" lon="3.8616">
        <ele>53.49</ele>
        <time>2016-10-31T14:47:24Z</time>
      </trkpt>
      <trkpt lat="50.60838" lon="3.86161">
        <ele>53.49</ele>
        <time>2016-10-31T14:47:53Z</time>
      </trkpt>
      <trkpt lat="50.60835" lon="3.86151">
        <ele>54.93</ele>
        <time>2016-10-31T14:48:20Z</time>
      </trkpt>
      <trkpt lat="50.60834" lon="3.86147">
        <ele>53.97</ele>
        <time>2016-10-31T14:48:23Z</time>
      </trkpt>
      <trkpt lat="50.60833" lon="3.86146">
        <ele>53.97</ele>
        <time>2016-10-31T14:48:24Z</time>
      </trkpt>
      <trkpt lat="50.60827" lon="3.86126">
        <ele>52.53</ele>
        <time>2016-10-31T14:48:37Z</time>
      </trkpt>
      <trkpt lat="50.60825" lon="3.8612">
        <ele>53.97</ele>
        <time>2016-10-31T14:48:40Z</time>
      </trkpt>
      <trkpt lat="50.60821" lon="3.86105">
        <ele>52.53</ele>
        <time>2016-10-31T14:48:49Z</time>
      </trkpt>
      <trkpt lat="50.60819" lon="3.86101">
        <ele>53.97</ele>
        <time>2016-10-31T14:48:52Z</time>
      </trkpt>
      <trkpt lat="50.60818" lon="3.86094">
        <ele>52.53</ele>
        <time>2016-10-31T14:48:56Z</time>
      </trkpt>
      <trkpt lat="50.60814" lon="3.8608">
        <ele>53.49</ele>
        <time>2016-10-31T14:49:03Z</time>
      </trkpt>
      <trkpt lat="50.60812" lon="3.86072">
        <ele>52.53</ele>
        <time>2016-10-31T14:49:07Z</time>
      </trkpt>
      <trkpt lat="50.60811" lon="3.8607">
        <ele>52.53</ele>
        <time>2016-10-31T14:49:08Z</time>
      </trkpt>
      <trkpt lat="50.60806" lon="3.86058">
        <ele>53.01</ele>
        <time>2016-10-31T14:49:16Z</time>
      </trkpt>
      <trkpt lat="50.60803" lon="3.8605">
        <ele>51.57</ele>
        <time>2016-10-31T14:49:21Z</time>
      </trkpt>
      <trkpt lat="50.60798" lon="3.86034">
        <ele>53.01</ele>
        <time>2016-10-31T14:49:29Z</time>
      </trkpt>
      <trkpt lat="50.60795" lon="3.86025">
        <ele>51.57</ele>
        <time>2016-10-31T14:49:34Z</time>
      </trkpt>
      <trkpt lat="50.60789" lon="3.86009">
        <ele>52.53</ele>
        <time>2016-10-31T14:49:44Z</time>
      </trkpt>
      <trkpt lat="50.60787" lon="3.86004">
        <ele>51.09</ele>
        <time>2016-10-31T14:49:47Z</time>
      </trkpt>
      <trkpt lat="50.6078" lon="3.85992">
        <ele>51.09</ele>
        <time>2016-10-31T14:49:55Z</time>
      </trkpt>
      <trkpt lat="50.60775" lon="3.85979">
        <ele>50.61</ele>
        <time>2016-10-31T14:50:02Z</time>
      </trkpt>
      <trkpt lat="50.60768" lon="3.85961">
        <ele>51.09</ele>
        <time>2016-10-31T14:50:12Z</time>
      </trkpt>
      <trkpt lat="50.6076" lon="3.85943">
        <ele>49.65</ele>
        <time>2016-10-31T14:50:23Z</time>
      </trkpt>
      <trkpt lat="50.60759" lon="3.8594">
        <ele>51.09</ele>
        <time>2016-10-31T14:50:25Z</time>
      </trkpt>
      <trkpt lat="50.60756" lon="3.8593">
        <ele>50.13</ele>
        <time>2016-10-31T14:50:30Z</time>
      </trkpt>
      <trkpt lat="50.60742" lon="3.85899">
        <ele>50.61</ele>
        <time>2016-10-31T14:50:50Z</time>
      </trkpt>
      <trkpt lat="50.6073" lon="3.85868">
        <ele>49.16</ele>
        <time>2016-10-31T14:51:07Z</time>
      </trkpt>
      <trkpt lat="50.60723" lon="3.85852">
        <ele>50.61</ele>
        <time>2016-10-31T14:51:17Z</time>
      </trkpt>
      <trkpt lat="50.60721" lon="3.85846">
        <ele>49.16</ele>
        <time>2016-10-31T14:51:20Z</time>
      </trkpt>
      <trkpt lat="50.60713" lon="3.85827">
        <ele>50.61</ele>
        <time>2016-10-31T14:51:31Z</time>
      </trkpt>
      <trkpt lat="50.607" lon="3.85797">
        <ele>50.13</ele>
        <time>2016-10-31T14:51:49Z</time>
      </trkpt>
      <trkpt lat="50.60687" lon="3.85775">
        <ele>49.65</ele>
        <time>2016-10-31T14:52:03Z</time>
      </trkpt>
      <trkpt lat="50.60682" lon="3.85768">
        <ele>48.2</ele>
        <time>2016-10-31T14:52:08Z</time>
      </trkpt>
      <trkpt lat="50.60663" lon="3.85743">
        <ele>47.72</ele>
        <time>2016-10-31T14:52:28Z</time>
      </trkpt>
      <trkpt lat="50.60646" lon="3.85722">
        <ele>47.24</ele>
        <time>2016-10-31T14:52:47Z</time>
      </trkpt>
      <trkpt lat="50.60639" lon="3.85714">
        <ele>47.24</ele>
        <time>2016-10-31T14:53:00Z</time>
      </trkpt>
      <trkpt lat="50.60632" lon="3.85704">
        <ele>47.24</ele>
        <time>2016-10-31T14:53:09Z</time>
      </trkpt>
      <trkpt lat="50.60627" lon="3.85699">
        <ele>48.68</ele>
        <time>2016-10-31T14:53:13Z</time>
      </trkpt>
      <trkpt lat="50.60606" lon="3.85673">
        <ele>49.16</ele>
        <time>2016-10-31T14:53:36Z</time>
      </trkpt>
      <trkpt lat="50.60584" lon="3.85649">
        <ele>48.2</ele>
        <time>2016-10-31T14:53:57Z</time>
      </trkpt>
      <trkpt lat="50.60565" lon="3.8563">
        <ele>47.72</ele>
        <time>2016-10-31T14:54:15Z</time>
      </trkpt>
      <trkpt lat="50.60553" lon="3.8562">
        <ele>48.68</ele>
        <time>2016-10-31T14:54:25Z</time>
      </trkpt>
      <trkpt lat="50.6055" lon="3.85617">
        <ele>47.24</ele>
        <time>2016-10-31T14:54:28Z</time>
      </trkpt>
      <trkpt lat="50.60534" lon="3.85588">
        <ele>47.24</ele>
        <time>2016-10-31T14:54:48Z</time>
      </trkpt>
      <trkpt lat="50.60527" lon="3.85579">
        <ele>45.8</ele>
        <time>2016-10-31T14:54:56Z</time>
      </trkpt>
      <trkpt lat="50.60525" lon="3.85577">
        <ele>47.24</ele>
        <time>2016-10-31T14:54:58Z</time>
      </trkpt>
      <trkpt lat="50.60512" lon="3.85562">
        <ele>47.24</ele>
        <time>2016-10-31T14:55:10Z</time>
      </trkpt>
      <trkpt lat="50.60501" lon="3.85547">
        <ele>46.76</ele>
        <time>2016-10-31T14:55:23Z</time>
      </trkpt>
      <trkpt lat="50.60492" lon="3.8554">
        <ele>45.8</ele>
        <time>2016-10-31T14:55:30Z</time>
      </trkpt>
      <trkpt lat="50.60482" lon="3.8553">
        <ele>46.76</ele>
        <time>2016-10-31T14:55:38Z</time>
      </trkpt>
      <trkpt lat="50.60467" lon="3.85516">
        <ele>46.28</ele>
        <time>2016-10-31T14:55:52Z</time>
      </trkpt>
      <trkpt lat="50.60458" lon="3.85506">
        <ele>44.84</ele>
        <time>2016-10-31T14:56:01Z</time>
      </trkpt>
      <trkpt lat="50.60453" lon="3.855">
        <ele>46.28</ele>
        <time>2016-10-31T14:56:06Z</time>
      </trkpt>
      <trkpt lat="50.60438" lon="3.85486">
        <ele>44.36</ele>
        <time>2016-10-31T14:56:20Z</time>
      </trkpt>
      <trkpt lat="50.60434" lon="3.8548">
        <ele>44.84</ele>
        <time>2016-10-31T14:56:24Z</time>
      </trkpt>
      <trkpt lat="50.6043" lon="3.85476">
        <ele>46.28</ele>
        <time>2016-10-31T14:56:28Z</time>
      </trkpt>
      <trkpt lat="50.60425" lon="3.85472">
        <ele>44.84</ele>
        <time>2016-10-31T14:56:32Z</time>
      </trkpt>
      <trkpt lat="50.60416" lon="3.85461">
        <ele>45.8</ele>
        <time>2016-10-31T14:56:43Z</time>
      </trkpt>
      <trkpt lat="50.60391" lon="3.85439">
        <ele>43.88</ele>
        <time>2016-10-31T14:57:04Z</time>
      </trkpt>
      <trkpt lat="50.60388" lon="3.85437">
        <ele>45.8</ele>
        <time>2016-10-31T14:57:07Z</time>
      </trkpt>
      <trkpt lat="50.60385" lon="3.85435">
        <ele>44.36</ele>
        <time>2016-10-31T14:57:10Z</time>
      </trkpt>
      <trkpt lat="50.60378" lon="3.85429">
        <ele>45.32</ele>
        <time>2016-10-31T14:57:16Z</time>
      </trkpt>
      <trkpt lat="50.60371" lon="3.85412">
        <ele>44.84</ele>
        <time>2016-10-31T14:57:28Z</time>
      </trkpt>
      <trkpt lat="50.60371" lon="3.85406">
        <ele>43.4</ele>
        <time>2016-10-31T14:57:31Z</time>
      </trkpt>
      <trkpt lat="50.60372" lon="3.85403">
        <ele>44.84</ele>
        <time>2016-10-31T14:57:33Z</time>
      </trkpt>
      <trkpt lat="50.60374" lon="3.85386">
        <ele>42.92</ele>
        <time>2016-10-31T14:57:42Z</time>
      </trkpt>
      <trkpt lat="50.60374" lon="3.85382">
        <ele>44.84</ele>
        <time>2016-10-31T14:57:44Z</time>
      </trkpt>
      <trkpt lat="50.60375" lon="3.85376">
        <ele>43.4</ele>
        <time>2016-10-31T14:57:47Z</time>
      </trkpt>
      <trkpt lat="50.60376" lon="3.85354">
        <ele>43.88</ele>
        <time>2016-10-31T14:57:58Z</time>
      </trkpt>
      <trkpt lat="50.60374" lon="3.85343">
        <ele>42.92</ele>
        <time>2016-10-31T14:58:04Z</time>
      </trkpt>
      <trkpt lat="50.60366" lon="3.85313">
        <ele>43.88</ele>
        <time>2016-10-31T14:58:21Z</time>
      </trkpt>
      <trkpt lat="50.60365" lon="3.85309">
        <ele>42.44</ele>
        <time>2016-10-31T14:58:24Z</time>
      </trkpt>
      <trkpt lat="50.60362" lon="3.85294">
        <ele>43.4</ele>
        <time>2016-10-31T14:58:31Z</time>
      </trkpt>
      <trkpt lat="50.60359" lon="3.85262">
        <ele>43.4</ele>
        <time>2016-10-31T14:58:46Z</time>
      </trkpt>
      <trkpt lat="50.60359" lon="3.85258">
        <ele>41.95</ele>
        <time>2016-10-31T14:58:48Z</time>
      </trkpt>
      <trkpt lat="50.6036" lon="3.85241">
        <ele>40.99</ele>
        <time>2016-10-31T14:58:57Z</time>
      </trkpt>
      <trkpt lat="50.60362" lon="3.85231">
        <ele>42.92</ele>
        <time>2016-10-31T14:59:02Z</time>
      </trkpt>
      <trkpt lat="50.60365" lon="3.85222">
        <ele>40.99</ele>
        <time>2016-10-31T14:59:06Z</time>
      </trkpt>
      <trkpt lat="50.60371" lon="3.85214">
        <ele>42.44</ele>
        <time>2016-10-31T14:59:12Z</time>
      </trkpt>
      <trkpt lat="50.60373" lon="3.85211">
        <ele>41.47</ele>
        <time>2016-10-31T14:59:14Z</time>
      </trkpt>
      <trkpt lat="50.60378" lon="3.85193">
        <ele>40.99</ele>
        <time>2016-10-31T14:59:25Z</time>
      </trkpt>
      <trkpt lat="50.60378" lon="3.85189">
        <ele>42.92</ele>
        <time>2016-10-31T14:59:27Z</time>
      </trkpt>
      <trkpt lat="50.60374" lon="3.85164">
        <ele>42.44</ele>
        <time>2016-10-31T14:59:40Z</time>
      </trkpt>
      <trkpt lat="50.60381" lon="3.85154">
        <ele>42.44</ele>
        <time>2016-10-31T14:59:45Z</time>
      </trkpt>
      <trkpt lat="50.60397" lon="3.85139">
        <ele>42.92</ele>
        <time>2016-10-31T14:59:59Z</time>
      </trkpt>
      <trkpt lat="50.60404" lon="3.85129">
        <ele>42.92</ele>
        <time>2016-10-31T15:00:07Z</time>
      </trkpt>
      <trkpt lat="50.604" lon="3.85119">
        <ele>42.92</ele>
        <time>2016-10-31T15:00:12Z</time>
      </trkpt>
      <trkpt lat="50.60393" lon="3.85082">
        <ele>42.44</ele>
        <time>2016-10-31T15:00:31Z</time>
      </trkpt>
      <trkpt lat="50.60385" lon="3.85055">
        <ele>42.44</ele>
        <time>2016-10-31T15:00:46Z</time>
      </trkpt>
      <trkpt lat="50.60385" lon="3.8504">
        <ele>43.88</ele>
        <time>2016-10-31T15:00:53Z</time>
      </trkpt>
      <trkpt lat="50.60387" lon="3.85034">
        <ele>41.95</ele>
        <time>2016-10-31T15:00:57Z</time>
      </trkpt>
      <trkpt lat="50.60387" lon="3.8503">
        <ele>43.4</ele>
        <time>2016-10-31T15:00:59Z</time>
      </trkpt>
      <trkpt lat="50.60396" lon="3.84992">
        <ele>44.36</ele>
        <time>2016-10-31T15:01:19Z</time>
      </trkpt>
      <trkpt lat="50.60402" lon="3.84982">
        <ele>42.92</ele>
        <time>2016-10-31T15:01:25Z</time>
      </trkpt>
      <trkpt lat="50.60403" lon="3.84976">
        <ele>42.92</ele>
        <time>2016-10-31T15:01:28Z</time>
      </trkpt>
      <trkpt lat="50.60393" lon="3.84955">
        <ele>43.4</ele>
        <time>2016-10-31T15:01:41Z</time>
      </trkpt>
      <trkpt lat="50.60382" lon="3.8493">
        <ele>41.47</ele>
        <time>2016-10-31T15:01:58Z</time>
      </trkpt>
      <trkpt lat="50.60379" lon="3.84924">
        <ele>41.47</ele>
        <time>2016-10-31T15:02:02Z</time>
      </trkpt>
      <trkpt lat="50.60373" lon="3.84911">
        <ele>42.92</ele>
        <time>2016-10-31T15:02:09Z</time>
      </trkpt>
      <trkpt lat="50.6037" lon="3.84908">
        <ele>41.47</ele>
        <time>2016-10-31T15:02:12Z</time>
      </trkpt>
      <trkpt lat="50.60357" lon="3.84873">
        <ele>40.99</ele>
        <time>2016-10-31T15:02:31Z</time>
      </trkpt>
      <trkpt lat="50.60349" lon="3.84849">
        <ele>40.03</ele>
        <time>2016-10-31T15:02:44Z</time>
      </trkpt>
      <trkpt lat="50.60346" lon="3.84839">
        <ele>39.07</ele>
        <time>2016-10-31T15:02:49Z</time>
      </trkpt>
      <trkpt lat="50.60342" lon="3.84808">
        <ele>40.51</ele>
        <time>2016-10-31T15:03:02Z</time>
      </trkpt>
      <trkpt lat="50.60339" lon="3.84802">
        <ele>38.59</ele>
        <time>2016-10-31T15:03:05Z</time>
      </trkpt>
      <trkpt lat="50.60334" lon="3.84784">
        <ele>39.07</ele>
        <time>2016-10-31T15:03:21Z</time>
      </trkpt>
      <trkpt lat="50.60335" lon="3.84779">
        <ele>39.55</ele>
        <time>2016-10-31T15:03:41Z</time>
      </trkpt>
      <trkpt lat="50.60331" lon="3.84785">
        <ele>39.55</ele>
        <time>2016-10-31T15:04:03Z</time>
      </trkpt>
      <trkpt lat="50.6032" lon="3.84794">
        <ele>38.59</ele>
        <time>2016-10-31T15:04:18Z</time>
      </trkpt>
      <trkpt lat="50.60302" lon="3.84812">
        <ele>40.03</ele>
        <time>2016-10-31T15:04:40Z</time>
      </trkpt>
      <trkpt lat="50.60295" lon="3.84825">
        <ele>40.03</ele>
        <time>2016-10-31T15:04:50Z</time>
      </trkpt>
      <trkpt lat="50.60294" lon="3.84829">
        <ele>38.59</ele>
        <time>2016-10-31T15:04:52Z</time>
      </trkpt>
      <trkpt lat="50.60293" lon="3.84834">
        <ele>38.59</ele>
        <time>2016-10-31T15:04:55Z</time>
      </trkpt>
      <trkpt lat="50.60287" lon="3.84847">
        <ele>40.03</ele>
        <time>2016-10-31T15:05:03Z</time>
      </trkpt>
      <trkpt lat="50.60287" lon="3.84848">
        <ele>40.03</ele>
        <time>2016-10-31T15:05:04Z</time>
      </trkpt>
      <trkpt lat="50.60285" lon="3.84852">
        <ele>38.59</ele>
        <time>2016-10-31T15:05:06Z</time>
      </trkpt>
      <trkpt lat="50.60284" lon="3.84856">
        <ele>38.59</ele>
        <time>2016-10-31T15:05:08Z</time>
      </trkpt>
      <trkpt lat="50.60276" lon="3.84885">
        <ele>40.03</ele>
        <time>2016-10-31T15:05:23Z</time>
      </trkpt>
      <trkpt lat="50.60273" lon="3.84898">
        <ele>38.11</ele>
        <time>2016-10-31T15:05:29Z</time>
      </trkpt>
      <trkpt lat="50.60272" lon="3.84902">
        <ele>40.03</ele>
        <time>2016-10-31T15:05:31Z</time>
      </trkpt>
      <trkpt lat="50.60271" lon="3.84905">
        <ele>38.59</ele>
        <time>2016-10-31T15:05:33Z</time>
      </trkpt>
      <trkpt lat="50.6027" lon="3.8491">
        <ele>40.03</ele>
        <time>2016-10-31T15:05:36Z</time>
      </trkpt>
      <trkpt lat="50.60266" lon="3.84926">
        <ele>39.07</ele>
        <time>2016-10-31T15:05:49Z</time>
      </trkpt>
      <trkpt lat="50.60257" lon="3.84938">
        <ele>38.11</ele>
        <time>2016-10-31T15:06:01Z</time>
      </trkpt>
      <trkpt lat="50.60256" lon="3.84941">
        <ele>40.03</ele>
        <time>2016-10-31T15:06:03Z</time>
      </trkpt>
      <trkpt lat="50.60253" lon="3.84946">
        <ele>38.59</ele>
        <time>2016-10-31T15:06:06Z</time>
      </trkpt>
      <trkpt lat="50.60248" lon="3.84955">
        <ele>38.59</ele>
        <time>2016-10-31T15:06:11Z</time>
      </trkpt>
      <trkpt lat="50.6024" lon="3.84962">
        <ele>40.03</ele>
        <time>2016-10-31T15:06:22Z</time>
      </trkpt>
      <trkpt lat="50.60233" lon="3.84974">
        <ele>40.99</ele>
        <time>2016-10-31T15:06:37Z</time>
      </trkpt>
      <trkpt lat="50.60228" lon="3.84979">
        <ele>40.03</ele>
        <time>2016-10-31T15:06:43Z</time>
      </trkpt>
      <trkpt lat="50.60222" lon="3.84986">
        <ele>41.47</ele>
        <time>2016-10-31T15:06:48Z</time>
      </trkpt>
      <trkpt lat="50.60212" lon="3.85002">
        <ele>42.44</ele>
        <time>2016-10-31T15:07:10Z</time>
      </trkpt>
      <trkpt lat="50.60208" lon="3.85002">
        <ele>42.92</ele>
        <time>2016-10-31T15:07:19Z</time>
      </trkpt>
      <trkpt lat="50.60207" lon="3.85003">
        <ele>40.99</ele>
        <time>2016-10-31T15:07:23Z</time>
      </trkpt>
      <trkpt lat="50.60205" lon="3.85004">
        <ele>42.92</ele>
        <time>2016-10-31T15:07:25Z</time>
      </trkpt>
      <trkpt lat="50.60204" lon="3.85006">
        <ele>41.47</ele>
        <time>2016-10-31T15:07:27Z</time>
      </trkpt>
      <trkpt lat="50.60175" lon="3.85037">
        <ele>42.92</ele>
        <time>2016-10-31T15:07:44Z</time>
      </trkpt>
      <trkpt lat="50.60166" lon="3.85046">
        <ele>42.92</ele>
        <time>2016-10-31T15:07:51Z</time>
      </trkpt>
      <trkpt lat="50.60162" lon="3.85053">
        <ele>41.95</ele>
        <time>2016-10-31T15:07:56Z</time>
      </trkpt>
      <trkpt lat="50.60161" lon="3.85055">
        <ele>43.4</ele>
        <time>2016-10-31T15:07:58Z</time>
      </trkpt>
      <trkpt lat="50.60157" lon="3.85062">
        <ele>43.88</ele>
        <time>2016-10-31T15:08:04Z</time>
      </trkpt>
      <trkpt lat="50.60155" lon="3.85064">
        <ele>42.44</ele>
        <time>2016-10-31T15:08:07Z</time>
      </trkpt>
      <trkpt lat="50.60132" lon="3.85087">
        <ele>44.36</ele>
        <time>2016-10-31T15:08:28Z</time>
      </trkpt>
      <trkpt lat="50.6012" lon="3.85107">
        <ele>44.84</ele>
        <time>2016-10-31T15:08:39Z</time>
      </trkpt>
      <trkpt lat="50.60111" lon="3.85117">
        <ele>44.84</ele>
        <time>2016-10-31T15:09:01Z</time>
      </trkpt>
      <trkpt lat="50.60104" lon="3.8513">
        <ele>44.84</ele>
        <time>2016-10-31T15:09:22Z</time>
      </trkpt>
      <trkpt lat="50.6009" lon="3.85141">
        <ele>44.84</ele>
        <time>2016-10-31T15:09:42Z</time>
      </trkpt>
      <trkpt lat="50.60077" lon="3.8515">
        <ele>45.8</ele>
        <time>2016-10-31T15:09:52Z</time>
      </trkpt>
      <trkpt lat="50.6007" lon="3.85155">
        <ele>43.88</ele>
        <time>2016-10-31T15:09:57Z</time>
      </trkpt>
      <trkpt lat="50.60068" lon="3.85158">
        <ele>45.32</ele>
        <time>2016-10-31T15:09:59Z</time>
      </trkpt>
      <trkpt lat="50.60061" lon="3.85162">
        <ele>44.36</ele>
        <time>2016-10-31T15:10:07Z</time>
      </trkpt>
      <trkpt lat="50.60045" lon="3.85175">
        <ele>45.8</ele>
        <time>2016-10-31T15:10:24Z</time>
      </trkpt>
      <trkpt lat="50.60037" lon="3.8518">
        <ele>46.28</ele>
        <time>2016-10-31T15:10:30Z</time>
      </trkpt>
      <trkpt lat="50.60031" lon="3.85183">
        <ele>45.32</ele>
        <time>2016-10-31T15:10:34Z</time>
      </trkpt>
      <trkpt lat="50.60027" lon="3.8519">
        <ele>46.28</ele>
        <time>2016-10-31T15:10:40Z</time>
      </trkpt>
      <trkpt lat="50.60014" lon="3.85199">
        <ele>46.76</ele>
        <time>2016-10-31T15:10:58Z</time>
      </trkpt>
      <trkpt lat="50.6" lon="3.85218">
        <ele>46.76</ele>
        <time>2016-10-31T15:11:15Z</time>
      </trkpt>
      <trkpt lat="50.59993" lon="3.85219">
        <ele>46.76</ele>
        <time>2016-10-31T15:11:37Z</time>
      </trkpt>
      <trkpt lat="50.59995" lon="3.85223">
        <ele>46.76</ele>
        <time>2016-10-31T15:12:00Z</time>
      </trkpt>
      <trkpt lat="50.59986" lon="3.85227">
        <ele>46.76</ele>
        <time>2016-10-31T15:12:10Z</time>
      </trkpt>
      <trkpt lat="50.59984" lon="3.85227">
        <ele>48.2</ele>
        <time>2016-10-31T15:12:12Z</time>
      </trkpt>
      <trkpt lat="50.59982" lon="3.85228">
        <ele>46.76</ele>
        <time>2016-10-31T15:12:14Z</time>
      </trkpt>
      <trkpt lat="50.59964" lon="3.8523">
        <ele>46.28</ele>
        <time>2016-10-31T15:12:35Z</time>
      </trkpt>
      <trkpt lat="50.59954" lon="3.85233">
        <ele>44.36</ele>
        <time>2016-10-31T15:12:52Z</time>
      </trkpt>
      <trkpt lat="50.59933" lon="3.85239">
        <ele>41.95</ele>
        <time>2016-10-31T15:13:11Z</time>
      </trkpt>
      <trkpt lat="50.59922" lon="3.85243">
        <ele>42.44</ele>
        <time>2016-10-31T15:13:19Z</time>
      </trkpt>
      <trkpt lat="50.59914" lon="3.85251">
        <ele>41.95</ele>
        <time>2016-10-31T15:13:30Z</time>
      </trkpt>
      <trkpt lat="50.59911" lon="3.85253">
        <ele>40.51</ele>
        <time>2016-10-31T15:13:33Z</time>
      </trkpt>
      <trkpt lat="50.59897" lon="3.85254">
        <ele>40.99</ele>
        <time>2016-10-31T15:13:43Z</time>
      </trkpt>
      <trkpt lat="50.59877" lon="3.8526">
        <ele>39.55</ele>
        <time>2016-10-31T15:13:53Z</time>
      </trkpt>
      <trkpt lat="50.59875" lon="3.8526">
        <ele>40.51</ele>
        <time>2016-10-31T15:13:55Z</time>
      </trkpt>
      <trkpt lat="50.59863" lon="3.85265">
        <ele>41.95</ele>
        <time>2016-10-31T15:14:11Z</time>
      </trkpt>
      <trkpt lat="50.59858" lon="3.85275">
        <ele>42.92</ele>
        <time>2016-10-31T15:14:24Z</time>
      </trkpt>
      <trkpt lat="50.59856" lon="3.85287">
        <ele>41.47</ele>
        <time>2016-10-31T15:14:30Z</time>
      </trkpt>
      <trkpt lat="50.59855" lon="3.85291">
        <ele>42.92</ele>
        <time>2016-10-31T15:14:32Z</time>
      </trkpt>
      <trkpt lat="50.59855" lon="3.85294">
        <ele>41.47</ele>
        <time>2016-10-31T15:14:34Z</time>
      </trkpt>
      <trkpt lat="50.59854" lon="3.853">
        <ele>42.92</ele>
        <time>2016-10-31T15:14:38Z</time>
      </trkpt>
      <trkpt lat="50.59852" lon="3.85306">
        <ele>41.47</ele>
        <time>2016-10-31T15:14:42Z</time>
      </trkpt>
      <trkpt lat="50.59842" lon="3.85333">
        <ele>40.99</ele>
        <time>2016-10-31T15:14:59Z</time>
      </trkpt>
      <trkpt lat="50.59842" lon="3.85363">
        <ele>42.44</ele>
        <time>2016-10-31T15:15:15Z</time>
      </trkpt>
      <trkpt lat="50.59835" lon="3.85374">
        <ele>42.44</ele>
        <time>2016-10-31T15:15:28Z</time>
      </trkpt>
      <trkpt lat="50.59834" lon="3.85379">
        <ele>41.47</ele>
        <time>2016-10-31T15:15:30Z</time>
      </trkpt>
      <trkpt lat="50.59827" lon="3.85396">
        <ele>42.92</ele>
        <time>2016-10-31T15:15:44Z</time>
      </trkpt>
      <trkpt lat="50.59827" lon="3.85396">
        <ele>42.92</ele>
        <time>2016-10-31T15:15:45Z</time>
      </trkpt>
      <trkpt lat="50.59825" lon="3.85396">
        <ele>41.47</ele>
        <time>2016-10-31T15:15:48Z</time>
      </trkpt>
      <trkpt lat="50.59821" lon="3.8541">
        <ele>42.92</ele>
        <time>2016-10-31T15:15:54Z</time>
      </trkpt>
      <trkpt lat="50.5982" lon="3.85423">
        <ele>41.47</ele>
        <time>2016-10-31T15:15:57Z</time>
      </trkpt>
      <trkpt lat="50.5982" lon="3.85449">
        <ele>41.95</ele>
        <time>2016-10-31T15:16:14Z</time>
      </trkpt>
      <trkpt lat="50.59805" lon="3.8545">
        <ele>42.92</ele>
        <time>2016-10-31T15:16:36Z</time>
      </trkpt>
      <trkpt lat="50.59793" lon="3.85446">
        <ele>41.47</ele>
        <time>2016-10-31T15:16:55Z</time>
      </trkpt>
      <trkpt lat="50.59774" lon="3.85452">
        <ele>40.99</ele>
        <time>2016-10-31T15:17:14Z</time>
      </trkpt>
      <trkpt lat="50.59756" lon="3.85454">
        <ele>40.03</ele>
        <time>2016-10-31T15:17:30Z</time>
      </trkpt>
      <trkpt lat="50.59753" lon="3.85452">
        <ele>41.47</ele>
        <time>2016-10-31T15:17:32Z</time>
      </trkpt>
      <trkpt lat="50.59746" lon="3.8545">
        <ele>41.47</ele>
        <time>2016-10-31T15:17:35Z</time>
      </trkpt>
      <trkpt lat="50.5974" lon="3.85448">
        <ele>40.03</ele>
        <time>2016-10-31T15:17:39Z</time>
      </trkpt>
      <trkpt lat="50.59725" lon="3.85439">
        <ele>41.47</ele>
        <time>2016-10-31T15:17:49Z</time>
      </trkpt>
      <trkpt lat="50.59712" lon="3.85433">
        <ele>42.44</ele>
        <time>2016-10-31T15:17:57Z</time>
      </trkpt>
      <trkpt lat="50.5971" lon="3.85431">
        <ele>40.99</ele>
        <time>2016-10-31T15:17:59Z</time>
      </trkpt>
      <trkpt lat="50.59701" lon="3.85421">
        <ele>42.44</ele>
        <time>2016-10-31T15:18:08Z</time>
      </trkpt>
      <trkpt lat="50.597" lon="3.85417">
        <ele>41.47</ele>
        <time>2016-10-31T15:18:10Z</time>
      </trkpt>
      <trkpt lat="50.59695" lon="3.854">
        <ele>42.92</ele>
        <time>2016-10-31T15:18:19Z</time>
      </trkpt>
      <trkpt lat="50.59698" lon="3.85365">
        <ele>44.36</ele>
        <time>2016-10-31T15:18:37Z</time>
      </trkpt>
      <trkpt lat="50.59698" lon="3.85362">
        <ele>43.4</ele>
        <time>2016-10-31T15:18:39Z</time>
      </trkpt>
      <trkpt lat="50.59695" lon="3.85352">
        <ele>44.84</ele>
        <time>2016-10-31T15:18:48Z</time>
      </trkpt>
      <trkpt lat="50.59694" lon="3.85327">
        <ele>45.32</ele>
        <time>2016-10-31T15:19:04Z</time>
      </trkpt>
      <trkpt lat="50.59695" lon="3.85323">
        <ele>43.88</ele>
        <time>2016-10-31T15:19:07Z</time>
      </trkpt>
      <trkpt lat="50.59692" lon="3.85316">
        <ele>43.88</ele>
        <time>2016-10-31T15:19:24Z</time>
      </trkpt>
      <trkpt lat="50.59696" lon="3.85313">
        <ele>45.32</ele>
        <time>2016-10-31T15:19:30Z</time>
      </trkpt>
      <trkpt lat="50.59708" lon="3.85309">
        <ele>45.32</ele>
        <time>2016-10-31T15:19:42Z</time>
      </trkpt>
      <trkpt lat="50.59719" lon="3.85301">
        <ele>43.88</ele>
        <time>2016-10-31T15:19:53Z</time>
      </trkpt>
      <trkpt lat="50.59738" lon="3.85293">
        <ele>44.36</ele>
        <time>2016-10-31T15:20:14Z</time>
      </trkpt>
      <trkpt lat="50.59764" lon="3.85274">
        <ele>43.88</ele>
        <time>2016-10-31T15:20:32Z</time>
      </trkpt>
      <trkpt lat="50.59775" lon="3.85261">
        <ele>41.95</ele>
        <time>2016-10-31T15:20:43Z</time>
      </trkpt>
      <trkpt lat="50.59777" lon="3.85259">
        <ele>43.88</ele>
        <time>2016-10-31T15:20:45Z</time>
      </trkpt>
      <trkpt lat="50.5978" lon="3.85255">
        <ele>41.95</ele>
        <time>2016-10-31T15:20:49Z</time>
      </trkpt>
      <trkpt lat="50.59782" lon="3.85253">
        <ele>43.88</ele>
        <time>2016-10-31T15:20:51Z</time>
      </trkpt>
      <trkpt lat="50.59783" lon="3.85251">
        <ele>42.44</ele>
        <time>2016-10-31T15:20:53Z</time>
      </trkpt>
      <trkpt lat="50.59788" lon="3.85226">
        <ele>43.4</ele>
        <time>2016-10-31T15:21:08Z</time>
      </trkpt>
      <trkpt lat="50.59781" lon="3.85218">
        <ele>43.4</ele>
        <time>2016-10-31T15:21:10Z</time>
      </trkpt>
      <trkpt lat="50.59775" lon="3.85209">
        <ele>43.88</ele>
        <time>2016-10-31T15:21:14Z</time>
      </trkpt>
      <trkpt lat="50.59764" lon="3.85189">
        <ele>42.44</ele>
        <time>2016-10-31T15:21:26Z</time>
      </trkpt>
      <trkpt lat="50.59761" lon="3.85178">
        <ele>44.84</ele>
        <time>2016-10-31T15:21:35Z</time>
      </trkpt>
      <trkpt lat="50.59752" lon="3.85177">
        <ele>44.84</ele>
        <time>2016-10-31T15:21:46Z</time>
      </trkpt>
      <trkpt lat="50.59742" lon="3.85172">
        <ele>48.2</ele>
        <time>2016-10-31T15:21:59Z</time>
      </trkpt>
      <trkpt lat="50.59731" lon="3.85164">
        <ele>48.68</ele>
        <time>2016-10-31T15:22:10Z</time>
      </trkpt>
      <trkpt lat="50.59715" lon="3.85153">
        <ele>49.16</ele>
        <time>2016-10-31T15:22:27Z</time>
      </trkpt>
      <trkpt lat="50.59712" lon="3.85153">
        <ele>50.61</ele>
        <time>2016-10-31T15:22:29Z</time>
      </trkpt>
      <trkpt lat="50.59705" lon="3.8515">
        <ele>51.57</ele>
        <time>2016-10-31T15:22:37Z</time>
      </trkpt>
      <trkpt lat="50.59701" lon="3.85148">
        <ele>50.13</ele>
        <time>2016-10-31T15:22:40Z</time>
      </trkpt>
      <trkpt lat="50.59693" lon="3.85141">
        <ele>52.05</ele>
        <time>2016-10-31T15:22:45Z</time>
      </trkpt>
      <trkpt lat="50.5969" lon="3.85138">
        <ele>50.13</ele>
        <time>2016-10-31T15:22:48Z</time>
      </trkpt>
      <trkpt lat="50.59667" lon="3.8512">
        <ele>51.57</ele>
        <time>2016-10-31T15:23:06Z</time>
      </trkpt>
      <trkpt lat="50.59666" lon="3.85119">
        <ele>50.61</ele>
        <time>2016-10-31T15:23:07Z</time>
      </trkpt>
      <trkpt lat="50.59639" lon="3.85105">
        <ele>49.65</ele>
        <time>2016-10-31T15:23:30Z</time>
      </trkpt>
      <trkpt lat="50.59637" lon="3.85105">
        <ele>52.53</ele>
        <time>2016-10-31T15:23:32Z</time>
      </trkpt>
      <trkpt lat="50.59626" lon="3.85099">
        <ele>51.57</ele>
        <time>2016-10-31T15:23:44Z</time>
      </trkpt>
      <trkpt lat="50.59611" lon="3.85087">
        <ele>51.09</ele>
        <time>2016-10-31T15:23:55Z</time>
      </trkpt>
      <trkpt lat="50.59589" lon="3.85081">
        <ele>51.09</ele>
        <time>2016-10-31T15:24:11Z</time>
      </trkpt>
      <trkpt lat="50.59585" lon="3.8508">
        <ele>49.65</ele>
        <time>2016-10-31T15:24:14Z</time>
      </trkpt>
      <trkpt lat="50.59584" lon="3.8508">
        <ele>51.57</ele>
        <time>2016-10-31T15:24:16Z</time>
      </trkpt>
      <trkpt lat="50.5958" lon="3.85079">
        <ele>50.13</ele>
        <time>2016-10-31T15:24:19Z</time>
      </trkpt>
      <trkpt lat="50.5957" lon="3.85069">
        <ele>51.57</ele>
        <time>2016-10-31T15:24:27Z</time>
      </trkpt>
      <trkpt lat="50.59567" lon="3.85065">
        <ele>50.13</ele>
        <time>2016-10-31T15:24:30Z</time>
      </trkpt>
      <trkpt lat="50.59553" lon="3.85049">
        <ele>50.13</ele>
        <time>2016-10-31T15:24:42Z</time>
      </trkpt>
      <trkpt lat="50.5955" lon="3.85042">
        <ele>50.13</ele>
        <time>2016-10-31T15:24:46Z</time>
      </trkpt>
      <trkpt lat="50.59569" lon="3.8501">
        <ele>49.16</ele>
        <time>2016-10-31T15:25:05Z</time>
      </trkpt>
      <trkpt lat="50.59578" lon="3.84987">
        <ele>49.16</ele>
        <time>2016-10-31T15:25:20Z</time>
      </trkpt>
      <trkpt lat="50.59581" lon="3.8497">
        <ele>47.72</ele>
        <time>2016-10-31T15:25:29Z</time>
      </trkpt>
      <trkpt lat="50.5958" lon="3.8496">
        <ele>46.76</ele>
        <time>2016-10-31T15:25:34Z</time>
      </trkpt>
      <trkpt lat="50.59567" lon="3.8496">
        <ele>48.2</ele>
        <time>2016-10-31T15:25:50Z</time>
      </trkpt>
      <trkpt lat="50.59564" lon="3.84962">
        <ele>46.76</ele>
        <time>2016-10-31T15:25:53Z</time>
      </trkpt>
      <trkpt lat="50.59546" lon="3.84963">
        <ele>46.28</ele>
        <time>2016-10-31T15:26:05Z</time>
      </trkpt>
      <trkpt lat="50.59543" lon="3.84964">
        <ele>48.68</ele>
        <time>2016-10-31T15:26:07Z</time>
      </trkpt>
      <trkpt lat="50.5954" lon="3.84965">
        <ele>47.24</ele>
        <time>2016-10-31T15:26:09Z</time>
      </trkpt>
      <trkpt lat="50.59531" lon="3.84966">
        <ele>48.2</ele>
        <time>2016-10-31T15:26:17Z</time>
      </trkpt>
      <trkpt lat="50.59525" lon="3.84969">
        <ele>47.24</ele>
        <time>2016-10-31T15:26:23Z</time>
      </trkpt>
      <trkpt lat="50.59506" lon="3.84974">
        <ele>48.2</ele>
        <time>2016-10-31T15:26:38Z</time>
      </trkpt>
      <trkpt lat="50.59498" lon="3.84971">
        <ele>47.72</ele>
        <time>2016-10-31T15:26:43Z</time>
      </trkpt>
      <trkpt lat="50.5949" lon="3.84969">
        <ele>49.16</ele>
        <time>2016-10-31T15:26:48Z</time>
      </trkpt>
      <trkpt lat="50.59487" lon="3.84966">
        <ele>47.72</ele>
        <time>2016-10-31T15:26:50Z</time>
      </trkpt>
      <trkpt lat="50.59485" lon="3.84966">
        <ele>49.65</ele>
        <time>2016-10-31T15:26:53Z</time>
      </trkpt>
      <trkpt lat="50.59479" lon="3.8497">
        <ele>48.68</ele>
        <time>2016-10-31T15:26:59Z</time>
      </trkpt>
      <trkpt lat="50.59472" lon="3.84978">
        <ele>50.13</ele>
        <time>2016-10-31T15:27:04Z</time>
      </trkpt>
      <trkpt lat="50.59459" lon="3.84992">
        <ele>51.57</ele>
        <time>2016-10-31T15:27:18Z</time>
      </trkpt>
      <trkpt lat="50.59444" lon="3.85008">
        <ele>52.05</ele>
        <time>2016-10-31T15:27:33Z</time>
      </trkpt>
      <trkpt lat="50.59436" lon="3.85032">
        <ele>52.05</ele>
        <time>2016-10-31T15:27:51Z</time>
      </trkpt>
      <trkpt lat="50.59431" lon="3.85042">
        <ele>53.49</ele>
        <time>2016-10-31T15:27:58Z</time>
      </trkpt>
      <trkpt lat="50.59418" lon="3.85066">
        <ele>53.97</ele>
        <time>2016-10-31T15:28:13Z</time>
      </trkpt>
      <trkpt lat="50.59417" lon="3.8507">
        <ele>52.53</ele>
        <time>2016-10-31T15:28:15Z</time>
      </trkpt>
      <trkpt lat="50.59415" lon="3.85082">
        <ele>53.97</ele>
        <time>2016-10-31T15:28:22Z</time>
      </trkpt>
      <trkpt lat="50.59411" lon="3.85101">
        <ele>53.97</ele>
        <time>2016-10-31T15:28:31Z</time>
      </trkpt>
      <trkpt lat="50.59405" lon="3.85134">
        <ele>53.49</ele>
        <time>2016-10-31T15:28:48Z</time>
      </trkpt>
      <trkpt lat="50.59401" lon="3.85154">
        <ele>54.93</ele>
        <time>2016-10-31T15:29:04Z</time>
      </trkpt>
      <trkpt lat="50.59416" lon="3.85151">
        <ele>56.37</ele>
        <time>2016-10-31T15:29:19Z</time>
      </trkpt>
      <trkpt lat="50.59419" lon="3.85153">
        <ele>54.45</ele>
        <time>2016-10-31T15:29:21Z</time>
      </trkpt>
      <trkpt lat="50.59442" lon="3.85169">
        <ele>54.93</ele>
        <time>2016-10-31T15:29:38Z</time>
      </trkpt>
      <trkpt lat="50.59449" lon="3.85173">
        <ele>54.45</ele>
        <time>2016-10-31T15:29:53Z</time>
      </trkpt>
      <trkpt lat="50.59454" lon="3.85174">
        <ele>55.41</ele>
        <time>2016-10-31T15:29:59Z</time>
      </trkpt>
      <trkpt lat="50.59461" lon="3.85179">
        <ele>53.97</ele>
        <time>2016-10-31T15:30:06Z</time>
      </trkpt>
      <trkpt lat="50.59479" lon="3.85188">
        <ele>53.97</ele>
        <time>2016-10-31T15:30:21Z</time>
      </trkpt>
      <trkpt lat="50.59483" lon="3.85194">
        <ele>52.53</ele>
        <time>2016-10-31T15:30:30Z</time>
      </trkpt>
      <trkpt lat="50.59485" lon="3.85196">
        <ele>54.45</ele>
        <time>2016-10-31T15:30:32Z</time>
      </trkpt>
      <trkpt lat="50.59498" lon="3.85209">
        <ele>54.93</ele>
        <time>2016-10-31T15:30:46Z</time>
      </trkpt>
      <trkpt lat="50.59504" lon="3.85205">
        <ele>53.49</ele>
        <time>2016-10-31T15:30:48Z</time>
      </trkpt>
      <trkpt lat="50.59508" lon="3.85205">
        <ele>53.49</ele>
        <time>2016-10-31T15:30:50Z</time>
      </trkpt>
      <trkpt lat="50.59523" lon="3.85216">
        <ele>53.49</ele>
        <time>2016-10-31T15:31:05Z</time>
      </trkpt>
      <trkpt lat="50.59526" lon="3.85219">
        <ele>53.49</ele>
        <time>2016-10-31T15:31:08Z</time>
      </trkpt>
      <trkpt lat="50.59534" lon="3.85229">
        <ele>53.01</ele>
        <time>2016-10-31T15:31:18Z</time>
      </trkpt>
      <trkpt lat="50.59535" lon="3.85231">
        <ele>53.01</ele>
        <time>2016-10-31T15:31:32Z</time>
      </trkpt>
      <trkpt lat="50.59534" lon="3.85228">
        <ele>53.01</ele>
        <time>2016-10-31T15:31:48Z</time>
      </trkpt>
      <trkpt lat="50.59534" lon="3.85226">
        <ele>52.53</ele>
        <time>2016-10-31T15:32:13Z</time>
      </trkpt>
      <trkpt lat="50.59533" lon="3.85221">
        <ele>54.93</ele>
        <time>2016-10-31T15:32:30Z</time>
      </trkpt>
      <trkpt lat="50.59531" lon="3.85218">
        <ele>54.45</ele>
        <time>2016-10-31T15:32:40Z</time>
      </trkpt>
      <trkpt lat="50.59534" lon="3.8524">
        <ele>54.93</ele>
        <time>2016-10-31T15:33:27Z</time>
      </trkpt>
      <trkpt lat="50.59532" lon="3.85236">
        <ele>54.93</ele>
        <time>2016-10-31T15:33:49Z</time>
      </trkpt>
      <trkpt lat="50.59531" lon="3.85231">
        <ele>54.93</ele>
        <time>2016-10-31T15:34:17Z</time>
      </trkpt>
      <trkpt lat="50.59532" lon="3.85215">
        <ele>54.93</ele>
        <time>2016-10-31T15:34:39Z</time>
      </trkpt>
      <trkpt lat="50.59524" lon="3.85198">
        <ele>54.93</ele>
        <time>2016-10-31T15:34:48Z</time>
      </trkpt>
      <trkpt lat="50.59523" lon="3.85194">
        <ele>54.93</ele>
        <time>2016-10-31T15:34:49Z</time>
      </trkpt>
      <trkpt lat="50.59523" lon="3.85192">
        <ele>54.93</ele>
        <time>2016-10-31T15:34:50Z</time>
      </trkpt>
      <trkpt lat="50.59523" lon="3.85188">
        <ele>54.93</ele>
        <time>2016-10-31T15:34:51Z</time>
      </trkpt>
      <trkpt lat="50.59523" lon="3.85184">
        <ele>54.93</ele>
        <time>2016-10-31T15:34:52Z</time>
      </trkpt>
    </trkseg>
  </trk>
</gpx>